<?xml version="1.0" encoding="UTF-8" standalone="no" ?>
<gpx xmlns="http://www.topografix.com/GPX/1/1" creator="MapSource 6.16.3" version="1.1" xmlns:xsi="http://www.w3.org/2001/XMLSchema-instance" xsi:schemaLocation="http://www.topografix.com/GPX/1/1 http://www.topografix.com/GPX/1/1/gpx.xsd">

  <metadata>
    <link href="http://www.garmin.com">
      <text>Garmin International</text>
    </link>
    <time>2016-09-15T12:22:28Z</time>
    <bounds maxlat="44.323697090148926" maxlon="11.405753195285797" minlat="44.262049198150635" minlon="11.369068622589111"/>
  </metadata>

  <trk>
    <name>ACTIVE LOG</name>
    <trkseg>
      <trkpt lat="44.32325653731823" lon="11.404079496860504">
        <ele>215</ele>
        <time>2004-02-08T10:30:50Z</time>
      </trkpt>
      <trkpt lat="44.323578402400017" lon="11.404701769351959">
        <ele>218</ele>
        <time>2004-02-08T10:30:32Z</time>
      </trkpt>
      <trkpt lat="44.323685690760612" lon="11.404873430728912">
        <ele>217</ele>
        <time>2004-02-08T10:30:26Z</time>
      </trkpt>
      <trkpt lat="44.323277994990349" lon="11.405238211154938">
        <ele>217</ele>
        <time>2004-02-08T10:30:19Z</time>
      </trkpt>
      <trkpt lat="44.323149165138602" lon="11.405324041843414">
        <ele>218</ele>
        <time>2004-02-08T10:30:17Z</time>
      </trkpt>
      <trkpt lat="44.322977587580681" lon="11.405388414859772">
        <ele>218</ele>
        <time>2004-02-08T10:30:15Z</time>
      </trkpt>
      <trkpt lat="44.322312399744987" lon="11.405517077073455">
        <ele>220</ele>
        <time>2004-02-08T10:30:07Z</time>
      </trkpt>
      <trkpt lat="44.322140738368034" lon="11.405581533908844">
        <ele>221</ele>
        <time>2004-02-08T10:30:05Z</time>
      </trkpt>
      <trkpt lat="44.32175450026989" lon="11.405710279941559">
        <ele>223</ele>
        <time>2004-02-08T10:30:00Z</time>
      </trkpt>
      <trkpt lat="44.32123951613903" lon="11.405753195285797">
        <ele>224</ele>
        <time>2004-02-08T10:29:55Z</time>
      </trkpt>
      <trkpt lat="44.321024939417839" lon="11.405710279941559">
        <ele>226</ele>
        <time>2004-02-08T10:29:50Z</time>
      </trkpt>
      <trkpt lat="44.32074598968029" lon="11.405560076236725">
        <ele>227</ele>
        <time>2004-02-08T10:29:46Z</time>
      </trkpt>
      <trkpt lat="44.320617159828544" lon="11.40543133020401">
        <ele>227</ele>
        <time>2004-02-08T10:29:44Z</time>
      </trkpt>
      <trkpt lat="44.320231005549431" lon="11.405045092105865">
        <ele>228</ele>
        <time>2004-02-08T10:29:38Z</time>
      </trkpt>
      <trkpt lat="44.320016428828239" lon="11.404766058549285">
        <ele>230</ele>
        <time>2004-02-08T10:29:34Z</time>
      </trkpt>
      <trkpt lat="44.319823309779167" lon="11.404272615909576">
        <ele>231</ele>
        <time>2004-02-08T10:29:28Z</time>
      </trkpt>
      <trkpt lat="44.319780394434929" lon="11.404100870713592">
        <ele>231</ele>
        <time>2004-02-08T10:29:26Z</time>
      </trkpt>
      <trkpt lat="44.319458529353142" lon="11.403285562992096">
        <ele>232</ele>
        <time>2004-02-08T10:29:15Z</time>
      </trkpt>
      <trkpt lat="44.319308325648308" lon="11.403221189975739">
        <ele>233</ele>
        <time>2004-02-08T10:29:12Z</time>
      </trkpt>
      <trkpt lat="44.318471476435661" lon="11.402985071763396">
        <ele>232</ele>
        <time>2004-02-08T10:28:54Z</time>
      </trkpt>
      <trkpt lat="44.318020865321159" lon="11.4031782746315">
        <ele>231</ele>
        <time>2004-02-08T10:28:44Z</time>
      </trkpt>
      <trkpt lat="44.317806288599968" lon="11.403264105319977">
        <ele>231</ele>
        <time>2004-02-08T10:28:39Z</time>
      </trkpt>
      <trkpt lat="44.316454539075494" lon="11.403564512729645">
        <ele>229</ele>
        <time>2004-02-08T10:28:16Z</time>
      </trkpt>
      <trkpt lat="44.316368624567986" lon="11.403607428073883">
        <ele>229</ele>
        <time>2004-02-08T10:28:14Z</time>
      </trkpt>
      <trkpt lat="44.315703436732292" lon="11.402856409549713">
        <ele>231</ele>
        <time>2004-02-08T10:27:59Z</time>
      </trkpt>
      <trkpt lat="44.31501679122448" lon="11.402276968583465">
        <ele>230</ele>
        <time>2004-02-08T10:27:45Z</time>
      </trkpt>
      <trkpt lat="44.314222941175103" lon="11.402319967746735">
        <ele>230</ele>
        <time>2004-02-08T10:27:32Z</time>
      </trkpt>
      <trkpt lat="44.313514837995172" lon="11.401719069108367">
        <ele>232</ele>
        <time>2004-02-08T10:27:19Z</time>
      </trkpt>
      <trkpt lat="44.313300177454948" lon="11.401311373338103">
        <ele>231</ele>
        <time>2004-02-08T10:27:14Z</time>
      </trkpt>
      <trkpt lat="44.312956938520074" lon="11.401010965928435">
        <ele>232</ele>
        <time>2004-02-08T10:27:09Z</time>
      </trkpt>
      <trkpt lat="44.312742277979851" lon="11.400860762223601">
        <ele>233</ele>
        <time>2004-02-08T10:27:06Z</time>
      </trkpt>
      <trkpt lat="44.3120127171278" lon="11.400538980960846">
        <ele>235</ele>
        <time>2004-02-08T10:26:56Z</time>
      </trkpt>
      <trkpt lat="44.31126169860363" lon="11.400517523288727">
        <ele>237</ele>
        <time>2004-02-08T10:26:43Z</time>
      </trkpt>
      <trkpt lat="44.310210272669792" lon="11.400324404239655">
        <ele>238</ele>
        <time>2004-02-08T10:26:24Z</time>
      </trkpt>
      <trkpt lat="44.310102984309196" lon="11.400281488895416">
        <ele>238</ele>
        <time>2004-02-08T10:26:22Z</time>
      </trkpt>
      <trkpt lat="44.309051558375359" lon="11.399487471207976">
        <ele>237</ele>
        <time>2004-02-08T10:25:59Z</time>
      </trkpt>
      <trkpt lat="44.308708235621452" lon="11.399230062961578">
        <ele>236</ele>
        <time>2004-02-08T10:25:51Z</time>
      </trkpt>
      <trkpt lat="44.307892760261893" lon="11.399101316928864">
        <ele>235</ele>
        <time>2004-02-08T10:25:35Z</time>
      </trkpt>
      <trkpt lat="44.306766986846924" lon="11.398916160687804">
        <ele>237</ele>
        <time>2004-02-08T10:25:17Z</time>
      </trkpt>
      <trkpt lat="44.306037425994873" lon="11.398873329162598">
        <ele>239</ele>
        <time>2004-02-08T10:25:06Z</time>
      </trkpt>
      <trkpt lat="44.304814338684082" lon="11.398980617523193">
        <ele>240</ele>
        <time>2004-02-08T10:24:43Z</time>
      </trkpt>
      <trkpt lat="44.304170608520508" lon="11.399044990539551">
        <ele>241</ele>
        <time>2004-02-08T10:24:31Z</time>
      </trkpt>
      <trkpt lat="44.303205013275146" lon="11.399002075195313">
        <ele>241</ele>
        <time>2004-02-08T10:24:19Z</time>
      </trkpt>
      <trkpt lat="44.3023681640625" lon="11.398723125457764">
        <ele>243</ele>
        <time>2004-02-08T10:24:10Z</time>
      </trkpt>
      <trkpt lat="44.300887584686279" lon="11.398251140490174">
        <ele>246</ele>
        <time>2004-02-08T10:23:52Z</time>
      </trkpt>
      <trkpt lat="44.300823211669922" lon="11.398229598999023">
        <ele>246</ele>
        <time>2004-02-08T10:23:51Z</time>
      </trkpt>
      <trkpt lat="44.299492835998535" lon="11.39782190322876">
        <ele>250</ele>
        <time>2004-02-08T10:23:35Z</time>
      </trkpt>
      <trkpt lat="44.299192428588867" lon="11.397907733917236">
        <ele>251</ele>
        <time>2004-02-08T10:23:31Z</time>
      </trkpt>
      <trkpt lat="44.298334121704102" lon="11.398508464917541">
        <ele>253</ele>
        <time>2004-02-08T10:23:18Z</time>
      </trkpt>
      <trkpt lat="44.297475814819336" lon="11.398530006408691">
        <ele>254</ele>
        <time>2004-02-08T10:23:04Z</time>
      </trkpt>
      <trkpt lat="44.296252727508545" lon="11.398251140490174">
        <ele>257</ele>
        <time>2004-02-08T10:22:40Z</time>
      </trkpt>
      <trkpt lat="44.296081066131592" lon="11.398229598999023">
        <ele>257</ele>
        <time>2004-02-08T10:22:37Z</time>
      </trkpt>
      <trkpt lat="44.295458793640137" lon="11.398401260375977">
        <ele>257</ele>
        <time>2004-02-08T10:22:21Z</time>
      </trkpt>
      <trkpt lat="44.295201301574707" lon="11.398229598999023">
        <ele>259</ele>
        <time>2004-02-08T10:22:08Z</time>
      </trkpt>
      <trkpt lat="44.295244216918945" lon="11.397478580474854">
        <ele>257</ele>
        <time>2004-02-08T10:21:49Z</time>
      </trkpt>
      <trkpt lat="44.29492243565619" lon="11.396877765655518">
        <ele>238</ele>
        <time>2004-02-08T08:02:13Z</time>
      </trkpt>
      <trkpt lat="44.294857978820801" lon="11.396856307983398">
        <ele>238</ele>
        <time>2004-02-08T08:02:14Z</time>
      </trkpt>
      <trkpt lat="44.293591976165771" lon="11.396512985229492">
        <ele>237</ele>
        <time>2004-02-08T08:02:30Z</time>
      </trkpt>
      <trkpt lat="44.293227195739746" lon="11.39631986618042">
        <ele>237</ele>
        <time>2004-02-08T08:02:36Z</time>
      </trkpt>
      <trkpt lat="44.292776584625244" lon="11.396083831787109">
        <ele>238</ele>
        <time>2004-02-08T08:02:49Z</time>
      </trkpt>
      <trkpt lat="44.292647838592529" lon="11.396019458770752">
        <ele>239</ele>
        <time>2004-02-08T08:02:52Z</time>
      </trkpt>
      <trkpt lat="44.29187536239624" lon="11.395611763000488">
        <ele>243</ele>
        <time>2004-02-08T08:03:07Z</time>
      </trkpt>
      <trkpt lat="44.290931224822998" lon="11.395204067230225">
        <ele>245</ele>
        <time>2004-02-08T08:03:27Z</time>
      </trkpt>
      <trkpt lat="44.290180206298828" lon="11.394946575164795">
        <ele>249</ele>
        <time>2004-02-08T08:03:43Z</time>
      </trkpt>
      <trkpt lat="44.28912878036499" lon="11.394753539934754">
        <ele>249</ele>
        <time>2004-02-08T08:04:04Z</time>
      </trkpt>
      <trkpt lat="44.288098812103271" lon="11.394474506378174">
        <ele>249</ele>
        <time>2004-02-08T08:04:22Z</time>
      </trkpt>
      <trkpt lat="44.287755489349365" lon="11.394495964050293">
        <ele>252</ele>
        <time>2004-02-08T08:04:28Z</time>
      </trkpt>
      <trkpt lat="44.287691116333008" lon="11.394495964050293">
        <ele>252</ele>
        <time>2004-02-08T08:04:29Z</time>
      </trkpt>
      <trkpt lat="44.28687572479248" lon="11.394410133361816">
        <ele>254</ele>
        <time>2004-02-08T08:04:46Z</time>
      </trkpt>
      <trkpt lat="44.28610316477716" lon="11.39380931854248">
        <ele>256</ele>
        <time>2004-02-08T08:05:04Z</time>
      </trkpt>
      <trkpt lat="44.286081790924072" lon="11.393766403198242">
        <ele>256</ele>
        <time>2004-02-08T08:05:05Z</time>
      </trkpt>
      <trkpt lat="44.285824298858643" lon="11.393337165936828">
        <ele>254</ele>
        <time>2004-02-08T08:05:13Z</time>
      </trkpt>
      <trkpt lat="44.285588264465332" lon="11.392929637804627">
        <ele>254</ele>
        <time>2004-02-08T08:05:20Z</time>
      </trkpt>
      <trkpt lat="44.284923076629639" lon="11.392264366149902">
        <ele>253</ele>
        <time>2004-02-08T08:05:36Z</time>
      </trkpt>
      <trkpt lat="44.284772872924805" lon="11.392178535461426">
        <ele>255</ele>
        <time>2004-02-08T08:05:39Z</time>
      </trkpt>
      <trkpt lat="44.283721363171935" lon="11.391856670379639">
        <ele>255</ele>
        <time>2004-02-08T08:05:59Z</time>
      </trkpt>
      <trkpt lat="44.283313835039735" lon="11.391878128051758">
        <ele>255</ele>
        <time>2004-02-08T08:06:06Z</time>
      </trkpt>
      <trkpt lat="44.283077716827393" lon="11.391899585723877">
        <ele>256</ele>
        <time>2004-02-08T08:06:10Z</time>
      </trkpt>
      <trkpt lat="44.282627105712891" lon="11.391749382019043">
        <ele>256</ele>
        <time>2004-02-08T08:06:17Z</time>
      </trkpt>
      <trkpt lat="44.282112121582031" lon="11.391234397888184">
        <ele>257</ele>
        <time>2004-02-08T08:06:33Z</time>
      </trkpt>
      <trkpt lat="44.281725883483887" lon="11.390933990478516">
        <ele>258</ele>
        <time>2004-02-08T08:06:49Z</time>
      </trkpt>
      <trkpt lat="44.28114652633667" lon="11.390612125396729">
        <ele>259</ele>
        <time>2004-02-08T08:07:08Z</time>
      </trkpt>
      <trkpt lat="44.280567169189453" lon="11.390461921691895">
        <ele>259</ele>
        <time>2004-02-08T08:07:23Z</time>
      </trkpt>
      <trkpt lat="44.279665863141418" lon="11.39033317565918">
        <ele>260</ele>
        <time>2004-02-08T08:07:43Z</time>
      </trkpt>
      <trkpt lat="44.279344081878662" lon="11.390354633331299">
        <ele>259</ele>
        <time>2004-02-08T08:07:51Z</time>
      </trkpt>
      <trkpt lat="44.278571605682373" lon="11.390140140429139">
        <ele>258</ele>
        <time>2004-02-08T08:08:11Z</time>
      </trkpt>
      <trkpt lat="44.278013706207275" lon="11.389882564544678">
        <ele>258</ele>
        <time>2004-02-08T08:08:28Z</time>
      </trkpt>
      <trkpt lat="44.277412891387939" lon="11.389603614807129">
        <ele>257</ele>
        <time>2004-02-08T08:08:46Z</time>
      </trkpt>
      <trkpt lat="44.276533126831055" lon="11.389002799987793">
        <ele>258</ele>
        <time>2004-02-08T08:09:12Z</time>
      </trkpt>
      <trkpt lat="44.275996685028076" lon="11.388552188873291">
        <ele>259</ele>
        <time>2004-02-08T08:09:30Z</time>
      </trkpt>
      <trkpt lat="44.275503158569336" lon="11.388423359021544">
        <ele>262</ele>
        <time>2004-02-08T08:09:48Z</time>
      </trkpt>
      <trkpt lat="44.275009632110596" lon="11.388788223266602">
        <ele>266</ele>
        <time>2004-02-08T08:10:06Z</time>
      </trkpt>
      <trkpt lat="44.274601936340332" lon="11.38883113861084">
        <ele>266</ele>
        <time>2004-02-08T08:10:20Z</time>
      </trkpt>
      <trkpt lat="44.274258613586426" lon="11.387801170349121">
        <ele>266</ele>
        <time>2004-02-08T08:10:39Z</time>
      </trkpt>
      <trkpt lat="44.273765087127686" lon="11.387307560071349">
        <ele>266</ele>
        <time>2004-02-08T08:10:55Z</time>
      </trkpt>
      <trkpt lat="44.273314476013184" lon="11.387114524841309">
        <ele>267</ele>
        <time>2004-02-08T08:11:09Z</time>
      </trkpt>
      <trkpt lat="44.272885322570801" lon="11.387114524841309">
        <ele>270</ele>
        <time>2004-02-08T08:11:24Z</time>
      </trkpt>
      <trkpt lat="44.272799491882324" lon="11.38707160949707">
        <ele>270</ele>
        <time>2004-02-08T08:11:27Z</time>
      </trkpt>
      <trkpt lat="44.272713661193848" lon="11.386899864301085">
        <ele>272</ele>
        <time>2004-02-08T08:11:32Z</time>
      </trkpt>
      <trkpt lat="44.272735118865967" lon="11.386814117431641">
        <ele>273</ele>
        <time>2004-02-08T08:11:35Z</time>
      </trkpt>
      <trkpt lat="44.272863864898682" lon="11.386277675628662">
        <ele>275</ele>
        <time>2004-02-08T08:11:50Z</time>
      </trkpt>
      <trkpt lat="44.272820865735412" lon="11.385655403137207">
        <ele>277</ele>
        <time>2004-02-08T08:12:07Z</time>
      </trkpt>
      <trkpt lat="44.272584915161133" lon="11.384968841448426">
        <ele>279</ele>
        <time>2004-02-08T08:12:27Z</time>
      </trkpt>
      <trkpt lat="44.272198677062988" lon="11.384711265563965">
        <ele>279</ele>
        <time>2004-02-08T08:12:42Z</time>
      </trkpt>
      <trkpt lat="44.271683692932129" lon="11.384561061859131">
        <ele>282</ele>
        <time>2004-02-08T08:12:59Z</time>
      </trkpt>
      <trkpt lat="44.271147334948182" lon="11.384475231170654">
        <ele>285</ele>
        <time>2004-02-08T08:13:17Z</time>
      </trkpt>
      <trkpt lat="44.27065372467041" lon="11.384303569793701">
        <ele>286</ele>
        <time>2004-02-08T08:13:34Z</time>
      </trkpt>
      <trkpt lat="44.269945621490479" lon="11.384067535400391">
        <ele>285</ele>
        <time>2004-02-08T08:13:56Z</time>
      </trkpt>
      <trkpt lat="44.269173061475158" lon="11.383767127990723">
        <ele>287</ele>
        <time>2004-02-08T08:14:18Z</time>
      </trkpt>
      <trkpt lat="44.268786907196045" lon="11.383187770843506">
        <ele>286</ele>
        <time>2004-02-08T08:14:33Z</time>
      </trkpt>
      <trkpt lat="44.268314838409424" lon="11.382672786712646">
        <ele>287</ele>
        <time>2004-02-08T08:14:51Z</time>
      </trkpt>
      <trkpt lat="44.267735481262207" lon="11.382136261090636">
        <ele>287</ele>
        <time>2004-02-08T08:15:10Z</time>
      </trkpt>
      <trkpt lat="44.267199039459229" lon="11.381964683532715">
        <ele>289</ele>
        <time>2004-02-08T08:15:25Z</time>
      </trkpt>
      <trkpt lat="44.266576766967773" lon="11.381621360778809">
        <ele>287</ele>
        <time>2004-02-08T08:15:41Z</time>
      </trkpt>
      <trkpt lat="44.266104698181152" lon="11.38134241104126">
        <ele>283</ele>
        <time>2004-02-08T08:15:52Z</time>
      </trkpt>
      <trkpt lat="44.265976035967469" lon="11.38108491897583">
        <ele>287</ele>
        <time>2004-02-08T08:16:03Z</time>
      </trkpt>
      <trkpt lat="44.265782833099365" lon="11.380870258435607">
        <ele>290</ele>
        <time>2004-02-08T08:16:17Z</time>
      </trkpt>
      <trkpt lat="44.265718460083008" lon="11.380763137713075">
        <ele>292</ele>
        <time>2004-02-08T08:16:24Z</time>
      </trkpt>
      <trkpt lat="44.265611171722412" lon="11.380548477172852">
        <ele>295</ele>
        <time>2004-02-08T08:16:37Z</time>
      </trkpt>
      <trkpt lat="44.265332221984863" lon="11.380355358123779">
        <ele>298</ele>
        <time>2004-02-08T08:16:56Z</time>
      </trkpt>
      <trkpt lat="44.265139102935791" lon="11.380248069763184">
        <ele>301</ele>
        <time>2004-02-08T08:17:11Z</time>
      </trkpt>
      <trkpt lat="44.265074729919434" lon="11.380205238237977">
        <ele>302</ele>
        <time>2004-02-08T08:17:16Z</time>
      </trkpt>
      <trkpt lat="44.264881610870361" lon="11.38007640838623">
        <ele>305</ele>
        <time>2004-02-08T08:17:33Z</time>
      </trkpt>
      <trkpt lat="44.264860237017274" lon="11.38007640838623">
        <ele>305</ele>
        <time>2004-02-08T08:17:34Z</time>
      </trkpt>
      <trkpt lat="44.264688491821289" lon="11.379969120025635">
        <ele>308</ele>
        <time>2004-02-08T08:17:49Z</time>
      </trkpt>
      <trkpt lat="44.264645576477051" lon="11.379947662353516">
        <ele>310</ele>
        <time>2004-02-08T08:17:53Z</time>
      </trkpt>
      <trkpt lat="44.26466703414917" lon="11.379926204681396">
        <ele>311</ele>
        <time>2004-02-08T08:17:54Z</time>
      </trkpt>
      <trkpt lat="44.264731407165527" lon="11.379818916320801">
        <ele>312</ele>
        <time>2004-02-08T08:17:59Z</time>
      </trkpt>
      <trkpt lat="44.265182018280029" lon="11.379711627960205">
        <ele>314</ele>
        <time>2004-02-08T08:18:18Z</time>
      </trkpt>
      <trkpt lat="44.265525341033936" lon="11.379690170288086">
        <ele>317</ele>
        <time>2004-02-08T08:18:33Z</time>
      </trkpt>
      <trkpt lat="44.265611171722412" lon="11.379690170288086">
        <ele>319</ele>
        <time>2004-02-08T08:18:37Z</time>
      </trkpt>
      <trkpt lat="44.265847206115723" lon="11.379690170288086">
        <ele>322</ele>
        <time>2004-02-08T08:18:48Z</time>
      </trkpt>
      <trkpt lat="44.265997409820557" lon="11.379325389862061">
        <ele>325</ele>
        <time>2004-02-08T08:19:04Z</time>
      </trkpt>
      <trkpt lat="44.266018867492676" lon="11.379196560010314">
        <ele>327</ele>
        <time>2004-02-08T08:19:09Z</time>
      </trkpt>
      <trkpt lat="44.265954494476318" lon="11.378917694091797">
        <ele>330</ele>
        <time>2004-02-08T08:19:23Z</time>
      </trkpt>
      <trkpt lat="44.265890121459961" lon="11.378638660535216">
        <ele>334</ele>
        <time>2004-02-08T08:19:36Z</time>
      </trkpt>
      <trkpt lat="44.265804290771484" lon="11.378295421600342">
        <ele>337</ele>
        <time>2004-02-08T08:19:53Z</time>
      </trkpt>
      <trkpt lat="44.265718460083008" lon="11.378295421600342">
        <ele>339</ele>
        <time>2004-02-08T08:20:02Z</time>
      </trkpt>
      <trkpt lat="44.265675460919738" lon="11.37838133610785">
        <ele>339</ele>
        <time>2004-02-08T08:20:07Z</time>
      </trkpt>
      <trkpt lat="44.265589714050293" lon="11.378531539812684">
        <ele>340</ele>
        <time>2004-02-08T08:20:16Z</time>
      </trkpt>
      <trkpt lat="44.265568340197206" lon="11.378509998321533">
        <ele>341</ele>
        <time>2004-02-08T08:20:19Z</time>
      </trkpt>
      <trkpt lat="44.265546798706055" lon="11.378488540649414">
        <ele>342</ele>
        <time>2004-02-08T08:20:20Z</time>
      </trkpt>
      <trkpt lat="44.265246391296387" lon="11.378188133239746">
        <ele>346</ele>
        <time>2004-02-08T08:20:41Z</time>
      </trkpt>
      <trkpt lat="44.265010440722108" lon="11.378145217895508">
        <ele>349</ele>
        <time>2004-02-08T08:20:56Z</time>
      </trkpt>
      <trkpt lat="44.264838695526123" lon="11.37810230255127">
        <ele>352</ele>
        <time>2004-02-08T08:21:08Z</time>
      </trkpt>
      <trkpt lat="44.264817237854004" lon="11.37810230255127">
        <ele>352</ele>
        <time>2004-02-08T08:21:09Z</time>
      </trkpt>
      <trkpt lat="44.264795780181885" lon="11.377995014190674">
        <ele>353</ele>
        <time>2004-02-08T08:21:23Z</time>
      </trkpt>
      <trkpt lat="44.265010440722108" lon="11.377823436632752">
        <ele>357</ele>
        <time>2004-02-08T08:21:39Z</time>
      </trkpt>
      <trkpt lat="44.265074729919434" lon="11.377758979797363">
        <ele>359</ele>
        <time>2004-02-08T08:21:45Z</time>
      </trkpt>
      <trkpt lat="44.265332221984863" lon="11.377544403076172">
        <ele>360</ele>
        <time>2004-02-08T08:22:04Z</time>
      </trkpt>
      <trkpt lat="44.265611171722412" lon="11.377222537994385">
        <ele>363</ele>
        <time>2004-02-08T08:22:23Z</time>
      </trkpt>
      <trkpt lat="44.265954494476318" lon="11.376922130584717">
        <ele>365</ele>
        <time>2004-02-08T08:22:43Z</time>
      </trkpt>
      <trkpt lat="44.266319274902344" lon="11.377050876617432">
        <ele>368</ele>
        <time>2004-02-08T08:23:01Z</time>
      </trkpt>
      <trkpt lat="44.26666259765625" lon="11.37709379196167">
        <ele>371</ele>
        <time>2004-02-08T08:23:20Z</time>
      </trkpt>
      <trkpt lat="44.266641139984131" lon="11.376964962109923">
        <ele>374</ele>
        <time>2004-02-08T08:23:26Z</time>
      </trkpt>
      <trkpt lat="44.266426563262939" lon="11.376686096191406">
        <ele>377</ele>
        <time>2004-02-08T08:23:41Z</time>
      </trkpt>
      <trkpt lat="44.26640510559082" lon="11.376643180847168">
        <ele>377</ele>
        <time>2004-02-08T08:23:43Z</time>
      </trkpt>
      <trkpt lat="44.266190528869629" lon="11.376128196716309">
        <ele>380</ele>
        <time>2004-02-08T08:24:05Z</time>
      </trkpt>
      <trkpt lat="44.265933036804199" lon="11.375999534502625">
        <ele>382</ele>
        <time>2004-02-08T08:24:22Z</time>
      </trkpt>
      <trkpt lat="44.265718460083008" lon="11.375977993011475">
        <ele>385</ele>
        <time>2004-02-08T08:24:32Z</time>
      </trkpt>
      <trkpt lat="44.265589714050293" lon="11.375935077667236">
        <ele>387</ele>
        <time>2004-02-08T08:24:39Z</time>
      </trkpt>
      <trkpt lat="44.265267765149474" lon="11.375784873962402">
        <ele>390</ele>
        <time>2004-02-08T08:24:55Z</time>
      </trkpt>
      <trkpt lat="44.265074729919434" lon="11.375784873962402">
        <ele>393</ele>
        <time>2004-02-08T08:25:04Z</time>
      </trkpt>
      <trkpt lat="44.264688491821289" lon="11.375720500946045">
        <ele>397</ele>
        <time>2004-02-08T08:25:23Z</time>
      </trkpt>
      <trkpt lat="44.264430999755859" lon="11.375634670257568">
        <ele>401</ele>
        <time>2004-02-08T08:25:37Z</time>
      </trkpt>
      <trkpt lat="44.264259338378906" lon="11.375527381896973">
        <ele>401</ele>
        <time>2004-02-08T08:25:54Z</time>
      </trkpt>
      <trkpt lat="44.264216423034668" lon="11.375484466552734">
        <ele>400</ele>
        <time>2004-02-08T08:27:10Z</time>
      </trkpt>
      <trkpt lat="44.264066219329834" lon="11.375162601470947">
        <ele>400</ele>
        <time>2004-02-08T08:27:29Z</time>
      </trkpt>
      <trkpt lat="44.263808727264404" lon="11.375012397766113">
        <ele>401</ele>
        <time>2004-02-08T08:27:46Z</time>
      </trkpt>
      <trkpt lat="44.263572692871094" lon="11.374797821044922">
        <ele>403</ele>
        <time>2004-02-08T08:28:05Z</time>
      </trkpt>
      <trkpt lat="44.263529777526855" lon="11.374776363372803">
        <ele>405</ele>
        <time>2004-02-08T08:28:08Z</time>
      </trkpt>
      <trkpt lat="44.263358116149902" lon="11.374711990356445">
        <ele>408</ele>
        <time>2004-02-08T08:28:22Z</time>
      </trkpt>
      <trkpt lat="44.263315200805664" lon="11.374690532684326">
        <ele>410</ele>
        <time>2004-02-08T08:28:25Z</time>
      </trkpt>
      <trkpt lat="44.263250827789307" lon="11.374647617340088">
        <ele>412</ele>
        <time>2004-02-08T08:28:29Z</time>
      </trkpt>
      <trkpt lat="44.26316499710083" lon="11.374626159667969">
        <ele>415</ele>
        <time>2004-02-08T08:28:35Z</time>
      </trkpt>
      <trkpt lat="44.263057708740234" lon="11.374368667602539">
        <ele>417</ele>
        <time>2004-02-08T08:28:50Z</time>
      </trkpt>
      <trkpt lat="44.263014793395996" lon="11.374154090881348">
        <ele>421</ele>
        <time>2004-02-08T08:29:03Z</time>
      </trkpt>
      <trkpt lat="44.262950420379639" lon="11.374025261029601">
        <ele>424</ele>
        <time>2004-02-08T08:29:12Z</time>
      </trkpt>
      <trkpt lat="44.26292896270752" lon="11.373960971832275">
        <ele>425</ele>
        <time>2004-02-08T08:29:16Z</time>
      </trkpt>
      <trkpt lat="44.262843132019043" lon="11.373746395111084">
        <ele>428</ele>
        <time>2004-02-08T08:29:30Z</time>
      </trkpt>
      <trkpt lat="44.262800216674805" lon="11.373682022094727">
        <ele>428</ele>
        <time>2004-02-08T08:29:45Z</time>
      </trkpt>
      <trkpt lat="44.262757301330566" lon="11.373660564422607">
        <ele>428</ele>
        <time>2004-02-08T08:30:22Z</time>
      </trkpt>
      <trkpt lat="44.262607097625732" lon="11.373488903045654">
        <ele>431</ele>
        <time>2004-02-08T08:30:33Z</time>
      </trkpt>
      <trkpt lat="44.262564182281494" lon="11.373488903045654">
        <ele>432</ele>
        <time>2004-02-08T08:30:36Z</time>
      </trkpt>
      <trkpt lat="44.262478435412049" lon="11.373467361554503">
        <ele>436</ele>
        <time>2004-02-08T08:30:40Z</time>
      </trkpt>
      <trkpt lat="44.262478435412049" lon="11.373445987701416">
        <ele>436</ele>
        <time>2004-02-08T08:30:41Z</time>
      </trkpt>
      <trkpt lat="44.262392520904541" lon="11.373252868652344">
        <ele>439</ele>
        <time>2004-02-08T08:30:52Z</time>
      </trkpt>
      <trkpt lat="44.262306690216064" lon="11.373038291931152">
        <ele>443</ele>
        <time>2004-02-08T08:31:09Z</time>
      </trkpt>
      <trkpt lat="44.262242317199707" lon="11.37284517288208">
        <ele>446</ele>
        <time>2004-02-08T08:31:24Z</time>
      </trkpt>
      <trkpt lat="44.262220859527588" lon="11.372737884521484">
        <ele>448</ele>
        <time>2004-02-08T08:31:31Z</time>
      </trkpt>
      <trkpt lat="44.26215648651123" lon="11.372416019439697">
        <ele>450</ele>
        <time>2004-02-08T08:31:48Z</time>
      </trkpt>
      <trkpt lat="44.262049198150635" lon="11.372072696685791">
        <ele>452</ele>
        <time>2004-02-08T08:32:05Z</time>
      </trkpt>
      <trkpt lat="44.262135028839111" lon="11.371750831604004">
        <ele>454</ele>
        <time>2004-02-08T08:32:20Z</time>
      </trkpt>
      <trkpt lat="44.262263774871826" lon="11.371493339538574">
        <ele>457</ele>
        <time>2004-02-08T08:32:37Z</time>
      </trkpt>
      <trkpt lat="44.262499809265137" lon="11.371150016784668">
        <ele>460</ele>
        <time>2004-02-08T08:32:59Z</time>
      </trkpt>
      <trkpt lat="44.262585639953613" lon="11.370999813079834">
        <ele>463</ele>
        <time>2004-02-08T08:33:08Z</time>
      </trkpt>
      <trkpt lat="44.26267147064209" lon="11.370849609375">
        <ele>466</ele>
        <time>2004-02-08T08:33:17Z</time>
      </trkpt>
      <trkpt lat="44.262800216674805" lon="11.370613574981689">
        <ele>469</ele>
        <time>2004-02-08T08:33:33Z</time>
      </trkpt>
      <trkpt lat="44.262821674346924" lon="11.37059211730957">
        <ele>469</ele>
        <time>2004-02-08T08:33:34Z</time>
      </trkpt>
      <trkpt lat="44.2629075050354" lon="11.370420539751649">
        <ele>473</ele>
        <time>2004-02-08T08:33:45Z</time>
      </trkpt>
      <trkpt lat="44.262950420379639" lon="11.370441913604736">
        <ele>473</ele>
        <time>2004-02-08T08:36:36Z</time>
      </trkpt>
      <trkpt lat="44.26292896270752" lon="11.370570659637451">
        <ele>473</ele>
        <time>2004-02-08T08:36:44Z</time>
      </trkpt>
      <trkpt lat="44.262950420379639" lon="11.371085559949279">
        <ele>475</ele>
        <time>2004-02-08T08:37:04Z</time>
      </trkpt>
      <trkpt lat="44.26292896270752" lon="11.371364593505859">
        <ele>478</ele>
        <time>2004-02-08T08:37:14Z</time>
      </trkpt>
      <trkpt lat="44.2629075050354" lon="11.371750831604004">
        <ele>481</ele>
        <time>2004-02-08T08:37:28Z</time>
      </trkpt>
      <trkpt lat="44.262950420379639" lon="11.371965408325195">
        <ele>484</ele>
        <time>2004-02-08T08:37:36Z</time>
      </trkpt>
      <trkpt lat="44.262971878051758" lon="11.371986865997314">
        <ele>485</ele>
        <time>2004-02-08T08:37:37Z</time>
      </trkpt>
      <trkpt lat="44.263143539428711" lon="11.372222900390625">
        <ele>488</ele>
        <time>2004-02-08T08:37:48Z</time>
      </trkpt>
      <trkpt lat="44.263443863019347" lon="11.372416019439697">
        <ele>491</ele>
        <time>2004-02-08T08:38:05Z</time>
      </trkpt>
      <trkpt lat="44.263722896575928" lon="11.37265213765204">
        <ele>494</ele>
        <time>2004-02-08T08:38:25Z</time>
      </trkpt>
      <trkpt lat="44.263916015625" lon="11.372759258374572">
        <ele>497</ele>
        <time>2004-02-08T08:38:41Z</time>
      </trkpt>
      <trkpt lat="44.264237880706787" lon="11.372716426849365">
        <ele>500</ele>
        <time>2004-02-08T08:39:04Z</time>
      </trkpt>
      <trkpt lat="44.264280796051025" lon="11.372694969177246">
        <ele>501</ele>
        <time>2004-02-08T08:39:06Z</time>
      </trkpt>
      <trkpt lat="44.264581203460693" lon="11.37265213765204">
        <ele>504</ele>
        <time>2004-02-08T08:39:26Z</time>
      </trkpt>
      <trkpt lat="44.264624118804932" lon="11.37260913848877">
        <ele>505</ele>
        <time>2004-02-08T08:39:30Z</time>
      </trkpt>
      <trkpt lat="44.264817237854004" lon="11.372437477111816">
        <ele>507</ele>
        <time>2004-02-08T08:39:50Z</time>
      </trkpt>
      <trkpt lat="44.264881610870361" lon="11.372416019439697">
        <ele>508</ele>
        <time>2004-02-08T08:39:56Z</time>
      </trkpt>
      <trkpt lat="44.264838695526123" lon="11.372179985046387">
        <ele>511</ele>
        <time>2004-02-08T08:40:09Z</time>
      </trkpt>
      <trkpt lat="44.264645576477051" lon="11.372158527374268">
        <ele>513</ele>
        <time>2004-02-08T08:40:26Z</time>
      </trkpt>
      <trkpt lat="44.264602661132813" lon="11.372158527374268">
        <ele>513</ele>
        <time>2004-02-08T08:40:29Z</time>
      </trkpt>
      <trkpt lat="44.264602661132813" lon="11.372072696685791">
        <ele>514</ele>
        <time>2004-02-08T08:40:35Z</time>
      </trkpt>
      <trkpt lat="44.264817237854004" lon="11.371922492980957">
        <ele>517</ele>
        <time>2004-02-08T08:40:53Z</time>
      </trkpt>
      <trkpt lat="44.265096187591553" lon="11.371879577636719">
        <ele>520</ele>
        <time>2004-02-08T08:41:14Z</time>
      </trkpt>
      <trkpt lat="44.265289306640625" lon="11.372094238176942">
        <ele>523</ele>
        <time>2004-02-08T08:41:29Z</time>
      </trkpt>
      <trkpt lat="44.265332221984863" lon="11.372501933947206">
        <ele>526</ele>
        <time>2004-02-08T08:41:45Z</time>
      </trkpt>
      <trkpt lat="44.265460968017578" lon="11.372630596160889">
        <ele>527</ele>
        <time>2004-02-08T08:42:00Z</time>
      </trkpt>
      <trkpt lat="44.265375137329102" lon="11.372265815734863">
        <ele>529</ele>
        <time>2004-02-08T08:42:20Z</time>
      </trkpt>
      <trkpt lat="44.265332221984863" lon="11.371750831604004">
        <ele>533</ele>
        <time>2004-02-08T08:42:39Z</time>
      </trkpt>
      <trkpt lat="44.265332221984863" lon="11.371514797210693">
        <ele>535</ele>
        <time>2004-02-08T08:42:46Z</time>
      </trkpt>
      <trkpt lat="44.265697002410889" lon="11.371085559949279">
        <ele>537</ele>
        <time>2004-02-08T08:42:59Z</time>
      </trkpt>
      <trkpt lat="44.265804290771484" lon="11.370871067047119">
        <ele>538</ele>
        <time>2004-02-08T08:43:07Z</time>
      </trkpt>
      <trkpt lat="44.26591157913208" lon="11.370806694030762">
        <ele>540</ele>
        <time>2004-02-08T08:55:51Z</time>
      </trkpt>
      <trkpt lat="44.26616907119751" lon="11.370677864179015">
        <ele>541</ele>
        <time>2004-02-08T08:56:08Z</time>
      </trkpt>
      <trkpt lat="44.266362190246582" lon="11.370506286621094">
        <ele>544</ele>
        <time>2004-02-08T08:56:20Z</time>
      </trkpt>
      <trkpt lat="44.266490936279297" lon="11.370441913604736">
        <ele>544</ele>
        <time>2004-02-08T08:56:31Z</time>
      </trkpt>
      <trkpt lat="44.266555309295654" lon="11.370398998260498">
        <ele>545</ele>
        <time>2004-02-08T08:56:47Z</time>
      </trkpt>
      <trkpt lat="44.266812801361084" lon="11.370205879211426">
        <ele>546</ele>
        <time>2004-02-08T08:57:06Z</time>
      </trkpt>
      <trkpt lat="44.26692008972168" lon="11.370141506195068">
        <ele>547</ele>
        <time>2004-02-08T08:57:14Z</time>
      </trkpt>
      <trkpt lat="44.26715612411499" lon="11.370034217834473">
        <ele>548</ele>
        <time>2004-02-08T08:57:28Z</time>
      </trkpt>
      <trkpt lat="44.267392158508301" lon="11.369926929473877">
        <ele>550</ele>
        <time>2004-02-08T08:57:46Z</time>
      </trkpt>
      <trkpt lat="44.267499363049865" lon="11.369905471801758">
        <ele>549</ele>
        <time>2004-02-08T08:57:51Z</time>
      </trkpt>
      <trkpt lat="44.267628192901611" lon="11.369712436571717">
        <ele>550</ele>
        <time>2004-02-08T08:58:09Z</time>
      </trkpt>
      <trkpt lat="44.267778396606445" lon="11.36956206522882">
        <ele>551</ele>
        <time>2004-02-08T08:58:24Z</time>
      </trkpt>
      <trkpt lat="44.267756938934326" lon="11.369540691375732">
        <ele>552</ele>
        <time>2004-02-08T08:58:28Z</time>
      </trkpt>
      <trkpt lat="44.267971515655518" lon="11.369433403015137">
        <ele>553</ele>
        <time>2004-02-08T08:58:46Z</time>
      </trkpt>
      <trkpt lat="44.268078804016113" lon="11.369433403015137">
        <ele>556</ele>
        <time>2004-02-08T08:58:55Z</time>
      </trkpt>
      <trkpt lat="44.268143177032471" lon="11.369411861523986">
        <ele>557</ele>
        <time>2004-02-08T08:59:00Z</time>
      </trkpt>
      <trkpt lat="44.268229007720947" lon="11.369304740801454">
        <ele>558</ele>
        <time>2004-02-08T08:59:07Z</time>
      </trkpt>
      <trkpt lat="44.268379211425781" lon="11.36915453709662">
        <ele>560</ele>
        <time>2004-02-08T08:59:26Z</time>
      </trkpt>
      <trkpt lat="44.268486499786377" lon="11.369068622589111">
        <ele>561</ele>
        <time>2004-02-08T08:59:40Z</time>
      </trkpt>
      <trkpt lat="44.268529415130615" lon="11.369068622589111">
        <ele>562</ele>
        <time>2004-02-08T08:59:47Z</time>
      </trkpt>
      <trkpt lat="44.268529415130615" lon="11.369068622589111">
        <ele>563</ele>
        <time>2004-02-08T08:59:49Z</time>
      </trkpt>
      <trkpt lat="44.268572330474854" lon="11.369068622589111">
        <ele>564</ele>
        <time>2004-02-08T08:59:53Z</time>
      </trkpt>
      <trkpt lat="44.26861516200006" lon="11.369068622589111">
        <ele>564</ele>
        <time>2004-02-08T08:59:56Z</time>
      </trkpt>
      <trkpt lat="44.268915737047791" lon="11.369369029998779">
        <ele>568</ele>
        <time>2004-02-08T09:00:21Z</time>
      </trkpt>
      <trkpt lat="44.269194602966309" lon="11.36960506439209">
        <ele>571</ele>
        <time>2004-02-08T09:00:44Z</time>
      </trkpt>
      <trkpt lat="44.269301891326904" lon="11.369626522064209">
        <ele>571</ele>
        <time>2004-02-08T09:01:02Z</time>
      </trkpt>
      <trkpt lat="44.269387722015381" lon="11.369690895080566">
        <ele>575</ele>
        <time>2004-02-08T09:01:36Z</time>
      </trkpt>
      <trkpt lat="44.269495010375977" lon="11.369755268096924">
        <ele>575</ele>
        <time>2004-02-08T09:01:52Z</time>
      </trkpt>
      <trkpt lat="44.26966667175293" lon="11.369733810424805">
        <ele>578</ele>
        <time>2004-02-08T09:02:08Z</time>
      </trkpt>
      <trkpt lat="44.269709587097168" lon="11.369733810424805">
        <ele>580</ele>
        <time>2004-02-08T09:02:23Z</time>
      </trkpt>
      <trkpt lat="44.269795417785645" lon="11.369712436571717">
        <ele>581</ele>
        <time>2004-02-08T09:02:38Z</time>
      </trkpt>
      <trkpt lat="44.269795417785645" lon="11.369712436571717">
        <ele>580</ele>
        <time>2004-02-08T09:02:53Z</time>
      </trkpt>
      <trkpt lat="44.269795417785645" lon="11.369690895080566">
        <ele>581</ele>
        <time>2004-02-08T09:03:11Z</time>
      </trkpt>
      <trkpt lat="44.269859790802002" lon="11.369690895080566">
        <ele>584</ele>
        <time>2004-02-08T09:03:18Z</time>
      </trkpt>
      <trkpt lat="44.270009994506836" lon="11.369669437408447">
        <ele>587</ele>
        <time>2004-02-08T09:03:25Z</time>
      </trkpt>
      <trkpt lat="44.270074367523193" lon="11.369669437408447">
        <ele>587</ele>
        <time>2004-02-08T09:03:35Z</time>
      </trkpt>
      <trkpt lat="44.27016019821167" lon="11.369669437408447">
        <ele>587</ele>
        <time>2004-02-08T09:05:09Z</time>
      </trkpt>
      <trkpt lat="44.2704176902771" lon="11.369884014129639">
        <ele>584</ele>
        <time>2004-02-08T09:05:14Z</time>
      </trkpt>
      <trkpt lat="44.270546436309814" lon="11.370055675506592">
        <ele>582</ele>
        <time>2004-02-08T09:05:17Z</time>
      </trkpt>
      <trkpt lat="44.270718097686768" lon="11.370420539751649">
        <ele>583</ele>
        <time>2004-02-08T09:05:26Z</time>
      </trkpt>
      <trkpt lat="44.270932674407959" lon="11.370871067047119">
        <ele>581</ele>
        <time>2004-02-08T09:05:48Z</time>
      </trkpt>
      <trkpt lat="44.271361827850342" lon="11.371192932128906">
        <ele>581</ele>
        <time>2004-02-08T09:06:05Z</time>
      </trkpt>
      <trkpt lat="44.271576404571533" lon="11.371622085571289">
        <ele>582</ele>
        <time>2004-02-08T09:06:19Z</time>
      </trkpt>
      <trkpt lat="44.27166223526001" lon="11.371965408325195">
        <ele>581</ele>
        <time>2004-02-08T09:06:32Z</time>
      </trkpt>
      <trkpt lat="44.27170523442328" lon="11.372330188751221">
        <ele>581</ele>
        <time>2004-02-08T09:06:49Z</time>
      </trkpt>
      <trkpt lat="44.27170523442328" lon="11.372351562604308">
        <ele>581</ele>
        <time>2004-02-08T09:06:53Z</time>
      </trkpt>
      <trkpt lat="44.27170523442328" lon="11.372566223144531">
        <ele>578</ele>
        <time>2004-02-08T09:07:00Z</time>
      </trkpt>
      <trkpt lat="44.271640777587891" lon="11.372931003570557">
        <ele>574</ele>
        <time>2004-02-08T09:07:05Z</time>
      </trkpt>
      <trkpt lat="44.271619319915771" lon="11.373081207275391">
        <ele>574</ele>
        <time>2004-02-08T09:07:07Z</time>
      </trkpt>
      <trkpt lat="44.271619319915771" lon="11.373231410980225">
        <ele>573</ele>
        <time>2004-02-08T09:07:09Z</time>
      </trkpt>
      <trkpt lat="44.271683692932129" lon="11.373960971832275">
        <ele>572</ele>
        <time>2004-02-08T09:07:22Z</time>
      </trkpt>
      <trkpt lat="44.271683692932129" lon="11.374111175537109">
        <ele>574</ele>
        <time>2004-02-08T09:07:32Z</time>
      </trkpt>
      <trkpt lat="44.271683692932129" lon="11.374325836077332">
        <ele>575</ele>
        <time>2004-02-08T09:07:47Z</time>
      </trkpt>
      <trkpt lat="44.271683692932129" lon="11.374390125274658">
        <ele>576</ele>
        <time>2004-02-08T09:07:51Z</time>
      </trkpt>
      <trkpt lat="44.271597862243652" lon="11.37460470199585">
        <ele>577</ele>
        <time>2004-02-08T09:08:10Z</time>
      </trkpt>
      <trkpt lat="44.271533489227295" lon="11.374669075012207">
        <ele>578</ele>
        <time>2004-02-08T09:08:28Z</time>
      </trkpt>
      <trkpt lat="44.271533489227295" lon="11.374754905700684">
        <ele>580</ele>
        <time>2004-02-08T09:08:49Z</time>
      </trkpt>
      <trkpt lat="44.271554863080382" lon="11.374797821044922">
        <ele>579</ele>
        <time>2004-02-08T09:08:53Z</time>
      </trkpt>
      <trkpt lat="44.271533489227295" lon="11.37484073638916">
        <ele>579</ele>
        <time>2004-02-08T09:08:56Z</time>
      </trkpt>
      <trkpt lat="44.271512031555176" lon="11.37509822845459">
        <ele>579</ele>
        <time>2004-02-08T09:09:09Z</time>
      </trkpt>
      <trkpt lat="44.271576404571533" lon="11.375205516815186">
        <ele>575</ele>
        <time>2004-02-08T09:09:13Z</time>
      </trkpt>
      <trkpt lat="44.271576404571533" lon="11.375269889831543">
        <ele>574</ele>
        <time>2004-02-08T09:09:15Z</time>
      </trkpt>
      <trkpt lat="44.271576404571533" lon="11.375420093536377">
        <ele>572</ele>
        <time>2004-02-08T09:09:20Z</time>
      </trkpt>
      <trkpt lat="44.271597862243652" lon="11.375441635027528">
        <ele>569</ele>
        <time>2004-02-08T09:09:22Z</time>
      </trkpt>
      <trkpt lat="44.271640777587891" lon="11.375570297241211">
        <ele>566</ele>
        <time>2004-02-08T09:09:27Z</time>
      </trkpt>
      <trkpt lat="44.27170523442328" lon="11.375698959454894">
        <ele>562</ele>
        <time>2004-02-08T09:09:30Z</time>
      </trkpt>
      <trkpt lat="44.27170523442328" lon="11.375741958618164">
        <ele>562</ele>
        <time>2004-02-08T09:09:31Z</time>
      </trkpt>
      <trkpt lat="44.271769523620605" lon="11.375956535339355">
        <ele>559</ele>
        <time>2004-02-08T09:09:36Z</time>
      </trkpt>
      <trkpt lat="44.271769523620605" lon="11.375977993011475">
        <ele>559</ele>
        <time>2004-02-08T09:09:37Z</time>
      </trkpt>
      <trkpt lat="44.271790981292725" lon="11.376214027404785">
        <ele>555</ele>
        <time>2004-02-08T09:09:42Z</time>
      </trkpt>
      <trkpt lat="44.271790981292725" lon="11.376256858929992">
        <ele>555</ele>
        <time>2004-02-08T09:09:43Z</time>
      </trkpt>
      <trkpt lat="44.271769523620605" lon="11.376364231109619">
        <ele>554</ele>
        <time>2004-02-08T09:09:45Z</time>
      </trkpt>
      <trkpt lat="44.271683692932129" lon="11.376750469207764">
        <ele>554</ele>
        <time>2004-02-08T09:09:52Z</time>
      </trkpt>
      <trkpt lat="44.27166223526001" lon="11.377007961273193">
        <ele>556</ele>
        <time>2004-02-08T09:09:58Z</time>
      </trkpt>
      <trkpt lat="44.27166223526001" lon="11.377201080322266">
        <ele>557</ele>
        <time>2004-02-08T09:10:03Z</time>
      </trkpt>
      <trkpt lat="44.271640777587891" lon="11.377265537157655">
        <ele>558</ele>
        <time>2004-02-08T09:10:05Z</time>
      </trkpt>
      <trkpt lat="44.271640777587891" lon="11.377286911010742">
        <ele>558</ele>
        <time>2004-02-08T09:10:06Z</time>
      </trkpt>
      <trkpt lat="44.271597862243652" lon="11.377437114715576">
        <ele>560</ele>
        <time>2004-02-08T09:10:17Z</time>
      </trkpt>
      <trkpt lat="44.271576404571533" lon="11.377544403076172">
        <ele>559</ele>
        <time>2004-02-08T09:10:31Z</time>
      </trkpt>
      <trkpt lat="44.271597862243652" lon="11.377608776092529">
        <ele>558</ele>
        <time>2004-02-08T09:10:45Z</time>
      </trkpt>
      <trkpt lat="44.271554863080382" lon="11.377673065289855">
        <ele>559</ele>
        <time>2004-02-08T09:11:12Z</time>
      </trkpt>
      <trkpt lat="44.271619319915771" lon="11.377801895141602">
        <ele>558</ele>
        <time>2004-02-08T09:14:43Z</time>
      </trkpt>
      <trkpt lat="44.271855438128114" lon="11.377909183502197">
        <ele>551</ele>
        <time>2004-02-08T09:14:47Z</time>
      </trkpt>
      <trkpt lat="44.272027015686035" lon="11.377801895141602">
        <ele>548</ele>
        <time>2004-02-08T09:14:51Z</time>
      </trkpt>
      <trkpt lat="44.272263133898377" lon="11.377394199371338">
        <ele>542</ele>
        <time>2004-02-08T09:14:56Z</time>
      </trkpt>
      <trkpt lat="44.272305965423584" lon="11.377308368682861">
        <ele>542</ele>
        <time>2004-02-08T09:14:57Z</time>
      </trkpt>
      <trkpt lat="44.272627830505371" lon="11.376943588256836">
        <ele>539</ele>
        <time>2004-02-08T09:15:03Z</time>
      </trkpt>
      <trkpt lat="44.272735118865967" lon="11.376857841387391">
        <ele>536</ele>
        <time>2004-02-08T09:15:05Z</time>
      </trkpt>
      <trkpt lat="44.272885322570801" lon="11.376750469207764">
        <ele>533</ele>
        <time>2004-02-08T09:15:08Z</time>
      </trkpt>
      <trkpt lat="44.273056983947754" lon="11.376686096191406">
        <ele>530</ele>
        <time>2004-02-08T09:15:11Z</time>
      </trkpt>
      <trkpt lat="44.273228561505675" lon="11.376643180847168">
        <ele>527</ele>
        <time>2004-02-08T09:15:14Z</time>
      </trkpt>
      <trkpt lat="44.273421764373779" lon="11.376729011535645">
        <ele>526</ele>
        <time>2004-02-08T09:15:17Z</time>
      </trkpt>
      <trkpt lat="44.273486137390137" lon="11.376729011535645">
        <ele>525</ele>
        <time>2004-02-08T09:15:18Z</time>
      </trkpt>
      <trkpt lat="44.273722171783447" lon="11.37758731842041">
        <ele>525</ele>
        <time>2004-02-08T09:15:20Z</time>
      </trkpt>
      <trkpt lat="44.273850917816162" lon="11.377544403076172">
        <ele>522</ele>
        <time>2004-02-08T09:15:24Z</time>
      </trkpt>
      <trkpt lat="44.274022579193115" lon="11.377201080322266">
        <ele>518</ele>
        <time>2004-02-08T09:15:28Z</time>
      </trkpt>
      <trkpt lat="44.274129867553711" lon="11.376879215240479">
        <ele>514</ele>
        <time>2004-02-08T09:15:31Z</time>
      </trkpt>
      <trkpt lat="44.274172782897949" lon="11.376793384552002">
        <ele>514</ele>
        <time>2004-02-08T09:15:32Z</time>
      </trkpt>
      <trkpt lat="44.274280071258545" lon="11.376578807830811">
        <ele>514</ele>
        <time>2004-02-08T09:15:34Z</time>
      </trkpt>
      <trkpt lat="44.274451732635498" lon="11.376407062634826">
        <ele>512</ele>
        <time>2004-02-08T09:15:36Z</time>
      </trkpt>
      <trkpt lat="44.274730682373047" lon="11.376235485076904">
        <ele>508</ele>
        <time>2004-02-08T09:15:39Z</time>
      </trkpt>
      <trkpt lat="44.275310039520264" lon="11.375849163159728">
        <ele>503</ele>
        <time>2004-02-08T09:15:45Z</time>
      </trkpt>
      <trkpt lat="44.275503158569336" lon="11.375720500946045">
        <ele>500</ele>
        <time>2004-02-08T09:15:47Z</time>
      </trkpt>
      <trkpt lat="44.275524616241455" lon="11.375677585601807">
        <ele>498</ele>
        <time>2004-02-08T09:15:48Z</time>
      </trkpt>
      <trkpt lat="44.275546073913574" lon="11.375591838732362">
        <ele>497</ele>
        <time>2004-02-08T09:15:50Z</time>
      </trkpt>
      <trkpt lat="44.275524616241455" lon="11.375441635027528">
        <ele>497</ele>
        <time>2004-02-08T09:15:58Z</time>
      </trkpt>
      <trkpt lat="44.275524616241455" lon="11.375441635027528">
        <ele>497</ele>
        <time>2004-02-08T09:16:00Z</time>
      </trkpt>
      <trkpt lat="44.2756103631109" lon="11.375548839569092">
        <ele>493</ele>
        <time>2004-02-08T09:16:13Z</time>
      </trkpt>
      <trkpt lat="44.275631904602051" lon="11.375548839569092">
        <ele>493</ele>
        <time>2004-02-08T09:16:14Z</time>
      </trkpt>
      <trkpt lat="44.275803565979004" lon="11.375570297241211">
        <ele>491</ele>
        <time>2004-02-08T09:16:19Z</time>
      </trkpt>
      <trkpt lat="44.275953769683838" lon="11.375763416290283">
        <ele>491</ele>
        <time>2004-02-08T09:16:23Z</time>
      </trkpt>
      <trkpt lat="44.276275634765625" lon="11.375784873962402">
        <ele>493</ele>
        <time>2004-02-08T09:16:30Z</time>
      </trkpt>
      <trkpt lat="44.276318633928895" lon="11.375784873962402">
        <ele>492</ele>
        <time>2004-02-08T09:16:31Z</time>
      </trkpt>
      <trkpt lat="44.276447296142578" lon="11.375741958618164">
        <ele>491</ele>
        <time>2004-02-08T09:16:33Z</time>
      </trkpt>
      <trkpt lat="44.27666187286377" lon="11.375613212585449">
        <ele>486</ele>
        <time>2004-02-08T09:16:36Z</time>
      </trkpt>
      <trkpt lat="44.276833534240723" lon="11.375548839569092">
        <ele>483</ele>
        <time>2004-02-08T09:16:39Z</time>
      </trkpt>
      <trkpt lat="44.277048110961914" lon="11.375527381896973">
        <ele>478</ele>
        <time>2004-02-08T09:16:44Z</time>
      </trkpt>
      <trkpt lat="44.277305603027344" lon="11.375398635864258">
        <ele>473</ele>
        <time>2004-02-08T09:16:48Z</time>
      </trkpt>
      <trkpt lat="44.277412891387939" lon="11.375377178192139">
        <ele>470</ele>
        <time>2004-02-08T09:16:50Z</time>
      </trkpt>
      <trkpt lat="44.277541637420654" lon="11.375420093536377">
        <ele>465</ele>
        <time>2004-02-08T09:16:53Z</time>
      </trkpt>
      <trkpt lat="44.27764892578125" lon="11.375420093536377">
        <ele>461</ele>
        <time>2004-02-08T09:16:56Z</time>
      </trkpt>
      <trkpt lat="44.277777671813965" lon="11.3753342628479">
        <ele>456</ele>
        <time>2004-02-08T09:16:59Z</time>
      </trkpt>
      <trkpt lat="44.277970790863037" lon="11.375570297241211">
        <ele>452</ele>
        <time>2004-02-08T09:17:03Z</time>
      </trkpt>
      <trkpt lat="44.278013706207275" lon="11.375741958618164">
        <ele>451</ele>
        <time>2004-02-08T09:17:05Z</time>
      </trkpt>
      <trkpt lat="44.278078079223633" lon="11.375913619995117">
        <ele>450</ele>
        <time>2004-02-08T09:17:07Z</time>
      </trkpt>
      <trkpt lat="44.278550064191222" lon="11.376385688781738">
        <ele>436</ele>
        <time>2004-02-08T09:19:39Z</time>
      </trkpt>
      <trkpt lat="44.27863597869873" lon="11.376106739044189">
        <ele>435</ele>
        <time>2004-02-08T09:19:43Z</time>
      </trkpt>
      <trkpt lat="44.278829097747803" lon="11.375827789306641">
        <ele>433</ele>
        <time>2004-02-08T09:19:47Z</time>
      </trkpt>
      <trkpt lat="44.279065132141113" lon="11.375613212585449">
        <ele>431</ele>
        <time>2004-02-08T09:19:51Z</time>
      </trkpt>
      <trkpt lat="44.279279708862305" lon="11.37529126368463">
        <ele>429</ele>
        <time>2004-02-08T09:23:21Z</time>
      </trkpt>
      <trkpt lat="44.279494285583496" lon="11.375226974487305">
        <ele>433</ele>
        <time>2004-02-08T09:23:31Z</time>
      </trkpt>
      <trkpt lat="44.279859066009521" lon="11.375076770782471">
        <ele>434</ele>
        <time>2004-02-08T09:23:48Z</time>
      </trkpt>
      <trkpt lat="44.27990198135376" lon="11.374990940093994">
        <ele>430</ele>
        <time>2004-02-08T09:29:33Z</time>
      </trkpt>
      <trkpt lat="44.280095100402832" lon="11.374905109405518">
        <ele>429</ele>
        <time>2004-02-08T09:29:37Z</time>
      </trkpt>
      <trkpt lat="44.280331134796143" lon="11.374733364209533">
        <ele>426</ele>
        <time>2004-02-08T09:29:42Z</time>
      </trkpt>
      <trkpt lat="44.2803955078125" lon="11.374690532684326">
        <ele>426</ele>
        <time>2004-02-08T09:35:25Z</time>
      </trkpt>
      <trkpt lat="44.280567169189453" lon="11.374325836077332">
        <ele>425</ele>
        <time>2004-02-08T09:35:41Z</time>
      </trkpt>
      <trkpt lat="44.280974864959717" lon="11.374239921569824">
        <ele>425</ele>
        <time>2004-02-08T09:36:00Z</time>
      </trkpt>
      <trkpt lat="44.281232440844178" lon="11.374132633209229">
        <ele>425</ele>
        <time>2004-02-08T09:36:16Z</time>
      </trkpt>
      <trkpt lat="44.281618595123291" lon="11.373982429504395">
        <ele>426</ele>
        <time>2004-02-08T09:36:36Z</time>
      </trkpt>
      <trkpt lat="44.282004833221436" lon="11.373939514160156">
        <ele>428</ele>
        <time>2004-02-08T09:36:55Z</time>
      </trkpt>
      <trkpt lat="44.282627105712891" lon="11.373982429504395">
        <ele>426</ele>
        <time>2004-02-08T09:37:13Z</time>
      </trkpt>
      <trkpt lat="44.283549785614014" lon="11.374111175537109">
        <ele>425</ele>
        <time>2004-02-08T09:37:30Z</time>
      </trkpt>
      <trkpt lat="44.28464412689209" lon="11.374218463897705">
        <ele>422</ele>
        <time>2004-02-08T09:37:50Z</time>
      </trkpt>
      <trkpt lat="44.285330772399902" lon="11.374282836914063">
        <ele>422</ele>
        <time>2004-02-08T09:38:03Z</time>
      </trkpt>
      <trkpt lat="44.285717010498047" lon="11.374819278717041">
        <ele>421</ele>
        <time>2004-02-08T09:38:13Z</time>
      </trkpt>
      <trkpt lat="44.285738468170166" lon="11.374990940093994">
        <ele>421</ele>
        <time>2004-02-08T09:38:15Z</time>
      </trkpt>
      <trkpt lat="44.285759925842285" lon="11.375570297241211">
        <ele>420</ele>
        <time>2004-02-08T09:38:22Z</time>
      </trkpt>
      <trkpt lat="44.286210536956787" lon="11.375827789306641">
        <ele>419</ele>
        <time>2004-02-08T09:38:31Z</time>
      </trkpt>
      <trkpt lat="44.286274909973145" lon="11.375827789306641">
        <ele>418</ele>
        <time>2004-02-08T09:38:32Z</time>
      </trkpt>
      <trkpt lat="44.287240505218506" lon="11.375591838732362">
        <ele>415</ele>
        <time>2004-02-08T09:38:49Z</time>
      </trkpt>
      <trkpt lat="44.287669658660889" lon="11.375656211748719">
        <ele>403</ele>
        <time>2004-04-04T08:47:31Z</time>
      </trkpt>
      <trkpt lat="44.287905693054199" lon="11.375699127092957">
        <ele>404</ele>
        <time>2004-04-04T08:47:42Z</time>
      </trkpt>
      <trkpt lat="44.288227558135986" lon="11.375935077667236">
        <ele>406</ele>
        <time>2004-04-04T08:47:58Z</time>
      </trkpt>
      <trkpt lat="44.288484966382384" lon="11.376192569732666">
        <ele>410</ele>
        <time>2004-04-04T08:48:13Z</time>
      </trkpt>
      <trkpt lat="44.288871288299561" lon="11.376578891649842">
        <ele>413</ele>
        <time>2004-04-04T08:48:34Z</time>
      </trkpt>
      <trkpt lat="44.288892662152648" lon="11.376643180847168">
        <ele>413</ele>
        <time>2004-04-04T08:48:37Z</time>
      </trkpt>
      <trkpt lat="44.288957118988037" lon="11.376793384552002">
        <ele>414</ele>
        <time>2004-04-04T08:48:42Z</time>
      </trkpt>
      <trkpt lat="44.288892662152648" lon="11.376900672912598">
        <ele>415</ele>
        <time>2004-04-04T08:48:48Z</time>
      </trkpt>
      <trkpt lat="44.288656711578369" lon="11.376686096191406">
        <ele>417</ele>
        <time>2004-04-04T08:49:05Z</time>
      </trkpt>
      <trkpt lat="44.288420677185059" lon="11.376514518633485">
        <ele>420</ele>
        <time>2004-04-04T08:49:21Z</time>
      </trkpt>
      <trkpt lat="44.28814172744751" lon="11.376471603289247">
        <ele>424</ele>
        <time>2004-04-04T08:49:39Z</time>
      </trkpt>
      <trkpt lat="44.287734031677246" lon="11.376471603289247">
        <ele>427</ele>
        <time>2004-04-04T08:50:02Z</time>
      </trkpt>
      <trkpt lat="44.287433624267578" lon="11.376664722338319">
        <ele>429</ele>
        <time>2004-04-04T08:50:22Z</time>
      </trkpt>
      <trkpt lat="44.287240505218506" lon="11.376857841387391">
        <ele>431</ele>
        <time>2004-04-04T08:50:35Z</time>
      </trkpt>
      <trkpt lat="44.286940097808838" lon="11.376965129747987">
        <ele>432</ele>
        <time>2004-04-04T08:50:53Z</time>
      </trkpt>
      <trkpt lat="44.286725521087646" lon="11.377050876617432">
        <ele>434</ele>
        <time>2004-04-04T08:51:08Z</time>
      </trkpt>
      <trkpt lat="44.286618232727051" lon="11.37737282551825">
        <ele>438</ele>
        <time>2004-04-04T08:51:25Z</time>
      </trkpt>
      <trkpt lat="44.286768436431885" lon="11.377694690600038">
        <ele>439</ele>
        <time>2004-04-04T08:51:44Z</time>
      </trkpt>
      <trkpt lat="44.287025928497314" lon="11.377651691436768">
        <ele>442</ele>
        <time>2004-04-04T08:52:00Z</time>
      </trkpt>
      <trkpt lat="44.287176132202148" lon="11.37739428319037">
        <ele>445</ele>
        <time>2004-04-04T08:52:15Z</time>
      </trkpt>
      <trkpt lat="44.287455081939697" lon="11.377222621813416">
        <ele>447</ele>
        <time>2004-04-04T08:52:35Z</time>
      </trkpt>
      <trkpt lat="44.287626659497619" lon="11.377480113878846">
        <ele>450</ele>
        <time>2004-04-04T08:52:51Z</time>
      </trkpt>
      <trkpt lat="44.287712574005127" lon="11.377930724993348">
        <ele>452</ele>
        <time>2004-04-04T08:53:10Z</time>
      </trkpt>
      <trkpt lat="44.288034439086914" lon="11.378188217058778">
        <ele>455</ele>
        <time>2004-04-04T08:53:30Z</time>
      </trkpt>
      <trkpt lat="44.288120269775391" lon="11.378424167633057">
        <ele>457</ele>
        <time>2004-04-04T08:53:41Z</time>
      </trkpt>
      <trkpt lat="44.288206100463867" lon="11.378939235582948">
        <ele>460</ele>
        <time>2004-04-04T08:54:01Z</time>
      </trkpt>
      <trkpt lat="44.288249015808105" lon="11.379539966583252">
        <ele>462</ele>
        <time>2004-04-04T08:54:21Z</time>
      </trkpt>
      <trkpt lat="44.288463592529297" lon="11.380076492205262">
        <ele>462</ele>
        <time>2004-04-04T08:54:39Z</time>
      </trkpt>
      <trkpt lat="44.288742458447814" lon="11.380720222368836">
        <ele>460</ele>
        <time>2004-04-04T08:54:58Z</time>
      </trkpt>
      <trkpt lat="44.288742458447814" lon="11.380763137713075">
        <ele>460</ele>
        <time>2004-04-04T08:55:00Z</time>
      </trkpt>
      <trkpt lat="44.288763999938965" lon="11.380805969238281">
        <ele>460</ele>
        <time>2004-04-04T08:55:02Z</time>
      </trkpt>
      <trkpt lat="44.288806915283203" lon="11.380805969238281">
        <ele>460</ele>
        <time>2004-04-04T08:55:04Z</time>
      </trkpt>
      <trkpt lat="44.289000034332275" lon="11.380741596221924">
        <ele>463</ele>
        <time>2004-04-04T08:55:15Z</time>
      </trkpt>
      <trkpt lat="44.289042865857482" lon="11.380763137713075">
        <ele>463</ele>
        <time>2004-04-04T08:55:19Z</time>
      </trkpt>
      <trkpt lat="44.28912878036499" lon="11.380956172943115">
        <ele>463</ele>
        <time>2004-04-04T08:55:41Z</time>
      </trkpt>
      <trkpt lat="44.289150238037109" lon="11.380999088287354">
        <ele>463</ele>
        <time>2004-04-04T08:55:51Z</time>
      </trkpt>
      <trkpt lat="44.28912878036499" lon="11.381106376647949">
        <ele>463</ele>
        <time>2004-04-04T08:55:56Z</time>
      </trkpt>
      <trkpt lat="44.289107322692871" lon="11.381664276123047">
        <ele>467</ele>
        <time>2004-04-04T08:56:14Z</time>
      </trkpt>
      <trkpt lat="44.28912878036499" lon="11.382222175598145">
        <ele>470</ele>
        <time>2004-04-04T08:56:35Z</time>
      </trkpt>
      <trkpt lat="44.289214611053467" lon="11.382372379302979">
        <ele>473</ele>
        <time>2004-04-04T08:56:43Z</time>
      </trkpt>
      <trkpt lat="44.289214611053467" lon="11.382393920794129">
        <ele>473</ele>
        <time>2004-04-04T08:56:44Z</time>
      </trkpt>
      <trkpt lat="44.289450561627746" lon="11.382715785875916">
        <ele>476</ele>
        <time>2004-04-04T08:57:07Z</time>
      </trkpt>
      <trkpt lat="44.289579391479492" lon="11.382780075073242">
        <ele>479</ele>
        <time>2004-04-04T08:57:17Z</time>
      </trkpt>
      <trkpt lat="44.289708137512207" lon="11.383059108629823">
        <ele>482</ele>
        <time>2004-04-04T08:57:35Z</time>
      </trkpt>
      <trkpt lat="44.289729595184326" lon="11.383488178253174">
        <ele>484</ele>
        <time>2004-04-04T08:57:57Z</time>
      </trkpt>
      <trkpt lat="44.289750969037414" lon="11.384067619219422">
        <ele>484</ele>
        <time>2004-04-04T08:58:15Z</time>
      </trkpt>
      <trkpt lat="44.290115833282471" lon="11.384754180908203">
        <ele>483</ele>
        <time>2004-04-04T08:58:39Z</time>
      </trkpt>
      <trkpt lat="44.290781021118164" lon="11.385290706530213">
        <ele>486</ele>
        <time>2004-04-04T08:59:06Z</time>
      </trkpt>
      <trkpt lat="44.291296005249023" lon="11.38582706451416">
        <ele>485</ele>
        <time>2004-04-04T08:59:28Z</time>
      </trkpt>
      <trkpt lat="44.291360378265381" lon="11.385955894365907">
        <ele>485</ele>
        <time>2004-04-04T08:59:43Z</time>
      </trkpt>
      <trkpt lat="44.291403293609619" lon="11.386063182726502">
        <ele>485</ele>
        <time>2004-04-04T09:00:07Z</time>
      </trkpt>
      <trkpt lat="44.291446208953857" lon="11.386127471923828">
        <ele>485</ele>
        <time>2004-04-04T09:00:09Z</time>
      </trkpt>
      <trkpt lat="44.291532039642334" lon="11.3863205909729">
        <ele>485</ele>
        <time>2004-04-04T09:00:13Z</time>
      </trkpt>
      <trkpt lat="44.291596412658691" lon="11.386427879333496">
        <ele>484</ele>
        <time>2004-04-04T09:00:15Z</time>
      </trkpt>
      <trkpt lat="44.291746616363525" lon="11.38683557510376">
        <ele>483</ele>
        <time>2004-04-04T09:00:23Z</time>
      </trkpt>
      <trkpt lat="44.29183236323297" lon="11.38711460866034">
        <ele>480</ele>
        <time>2004-04-04T09:00:27Z</time>
      </trkpt>
      <trkpt lat="44.291982566937804" lon="11.387457931414247">
        <ele>478</ele>
        <time>2004-04-04T09:00:34Z</time>
      </trkpt>
      <trkpt lat="44.292175769805908" lon="11.3876295927912">
        <ele>475</ele>
        <time>2004-04-04T09:00:39Z</time>
      </trkpt>
      <trkpt lat="44.292325973510742" lon="11.387736797332764">
        <ele>471</ele>
        <time>2004-04-04T09:00:42Z</time>
      </trkpt>
      <trkpt lat="44.292433261871338" lon="11.387822711840272">
        <ele>468</ele>
        <time>2004-04-04T09:00:44Z</time>
      </trkpt>
      <trkpt lat="44.292476177215576" lon="11.387844085693359">
        <ele>468</ele>
        <time>2004-04-04T09:00:45Z</time>
      </trkpt>
      <trkpt lat="44.292647838592529" lon="11.387951374053955">
        <ele>464</ele>
        <time>2004-04-04T09:00:48Z</time>
      </trkpt>
      <trkpt lat="44.292755126953125" lon="11.388015830889344">
        <ele>461</ele>
        <time>2004-04-04T09:00:50Z</time>
      </trkpt>
      <trkpt lat="44.292862415313721" lon="11.388080203905702">
        <ele>457</ele>
        <time>2004-04-04T09:00:52Z</time>
      </trkpt>
      <trkpt lat="44.292926788330078" lon="11.388101577758789">
        <ele>457</ele>
        <time>2004-04-04T09:00:53Z</time>
      </trkpt>
      <trkpt lat="44.293055534362793" lon="11.388166034594178">
        <ele>454</ele>
        <time>2004-04-04T09:00:55Z</time>
      </trkpt>
      <trkpt lat="44.293205738067627" lon="11.388208866119385">
        <ele>451</ele>
        <time>2004-04-04T09:00:57Z</time>
      </trkpt>
      <trkpt lat="44.293398940935731" lon="11.388316238299012">
        <ele>446</ele>
        <time>2004-04-04T09:01:01Z</time>
      </trkpt>
      <trkpt lat="44.293420314788818" lon="11.388337695971131">
        <ele>446</ele>
        <time>2004-04-04T09:01:02Z</time>
      </trkpt>
      <trkpt lat="44.293441772460938" lon="11.388359069824219">
        <ele>446</ele>
        <time>2004-04-04T09:01:03Z</time>
      </trkpt>
      <trkpt lat="44.293549060821533" lon="11.388616561889648">
        <ele>438</ele>
        <time>2004-04-04T09:08:19Z</time>
      </trkpt>
      <trkpt lat="44.293506061658263" lon="11.389045799151063">
        <ele>437</ele>
        <time>2004-04-04T09:08:24Z</time>
      </trkpt>
      <trkpt lat="44.293591976165771" lon="11.389474868774414">
        <ele>433</ele>
        <time>2004-04-04T09:08:30Z</time>
      </trkpt>
      <trkpt lat="44.29363489151001" lon="11.389539325609803">
        <ele>433</ele>
        <time>2004-04-04T09:08:32Z</time>
      </trkpt>
      <trkpt lat="44.293892383575439" lon="11.389753902330995">
        <ele>431</ele>
        <time>2004-04-04T09:08:41Z</time>
      </trkpt>
      <trkpt lat="44.294021129608154" lon="11.389968395233154">
        <ele>427</ele>
        <time>2004-04-04T09:08:44Z</time>
      </trkpt>
      <trkpt lat="44.294106960296631" lon="11.390182971954346">
        <ele>425</ele>
        <time>2004-04-04T09:08:46Z</time>
      </trkpt>
      <trkpt lat="44.294257164001465" lon="11.390526294708252">
        <ele>426</ele>
        <time>2004-04-04T09:08:53Z</time>
      </trkpt>
      <trkpt lat="44.294364368543029" lon="11.390740871429443">
        <ele>429</ele>
        <time>2004-04-04T09:09:01Z</time>
      </trkpt>
      <trkpt lat="44.29438591003418" lon="11.390762412920594">
        <ele>429</ele>
        <time>2004-04-04T09:09:02Z</time>
      </trkpt>
      <trkpt lat="44.294428825378418" lon="11.390805328264832">
        <ele>430</ele>
        <time>2004-04-04T09:09:05Z</time>
      </trkpt>
      <trkpt lat="44.294493198394775" lon="11.390783786773682">
        <ele>431</ele>
        <time>2004-04-04T09:09:25Z</time>
      </trkpt>
      <trkpt lat="44.294514739885926" lon="11.390805328264832">
        <ele>431</ele>
        <time>2004-04-04T09:09:48Z</time>
      </trkpt>
      <trkpt lat="44.294686317443848" lon="11.390912616625428">
        <ele>430</ele>
        <time>2004-04-04T09:10:19Z</time>
      </trkpt>
      <trkpt lat="44.294793605804443" lon="11.391019904986024">
        <ele>427</ele>
        <time>2004-04-04T09:10:27Z</time>
      </trkpt>
      <trkpt lat="44.29487943649292" lon="11.391170108690858">
        <ele>425</ele>
        <time>2004-04-04T09:10:34Z</time>
      </trkpt>
      <trkpt lat="44.294922268018126" lon="11.391213024035096">
        <ele>424</ele>
        <time>2004-04-04T09:10:36Z</time>
      </trkpt>
      <trkpt lat="44.295008182525635" lon="11.391341686248779">
        <ele>421</ele>
        <time>2004-04-04T09:10:41Z</time>
      </trkpt>
      <trkpt lat="44.29511547088623" lon="11.391470516100526">
        <ele>416</ele>
        <time>2004-04-04T09:10:50Z</time>
      </trkpt>
      <trkpt lat="44.295222759246826" lon="11.391534889116883">
        <ele>413</ele>
        <time>2004-04-04T09:10:57Z</time>
      </trkpt>
      <trkpt lat="44.295287132263184" lon="11.391599178314209">
        <ele>409</ele>
        <time>2004-04-04T09:11:01Z</time>
      </trkpt>
      <trkpt lat="44.29532996378839" lon="11.39162071980536">
        <ele>408</ele>
        <time>2004-04-04T09:11:03Z</time>
      </trkpt>
      <trkpt lat="44.295437335968018" lon="11.391577804461122">
        <ele>405</ele>
        <time>2004-04-04T09:11:12Z</time>
      </trkpt>
      <trkpt lat="44.295501708984375" lon="11.391427600756288">
        <ele>401</ele>
        <time>2004-04-04T09:11:18Z</time>
      </trkpt>
      <trkpt lat="44.295544624328613" lon="11.391255939379334">
        <ele>398</ele>
        <time>2004-04-04T09:11:25Z</time>
      </trkpt>
      <trkpt lat="44.295544624328613" lon="11.391213024035096">
        <ele>397</ele>
        <time>2004-04-04T09:11:27Z</time>
      </trkpt>
      <trkpt lat="44.295608997344971" lon="11.391170108690858">
        <ele>393</ele>
        <time>2004-04-04T09:11:31Z</time>
      </trkpt>
      <trkpt lat="44.295630538836122" lon="11.391191482543945">
        <ele>392</ele>
        <time>2004-04-04T09:11:33Z</time>
      </trkpt>
      <trkpt lat="44.295716285705566" lon="11.391234397888184">
        <ele>388</ele>
        <time>2004-04-04T09:11:39Z</time>
      </trkpt>
      <trkpt lat="44.295759201049805" lon="11.391255939379334">
        <ele>385</ele>
        <time>2004-04-04T09:11:42Z</time>
      </trkpt>
      <trkpt lat="44.295780658721924" lon="11.391277397051454">
        <ele>383</ele>
        <time>2004-04-04T09:11:44Z</time>
      </trkpt>
      <trkpt lat="44.295802116394043" lon="11.391277397051454">
        <ele>382</ele>
        <time>2004-04-04T09:11:47Z</time>
      </trkpt>
      <trkpt lat="44.295887863263488" lon="11.391298770904541">
        <ele>380</ele>
        <time>2004-04-04T09:12:04Z</time>
      </trkpt>
      <trkpt lat="44.295952320098877" lon="11.391341686248779">
        <ele>380</ele>
        <time>2004-04-04T09:12:47Z</time>
      </trkpt>
      <trkpt lat="44.295930862426758" lon="11.391298770904541">
        <ele>378</ele>
        <time>2004-04-04T09:13:26Z</time>
      </trkpt>
      <trkpt lat="44.296038066968322" lon="11.391234397888184">
        <ele>373</ele>
        <time>2004-04-04T09:13:29Z</time>
      </trkpt>
      <trkpt lat="44.296102523803711" lon="11.391213024035096">
        <ele>371</ele>
        <time>2004-04-04T09:13:32Z</time>
      </trkpt>
      <trkpt lat="44.296145439147949" lon="11.391148567199707">
        <ele>369</ele>
        <time>2004-04-04T09:13:35Z</time>
      </trkpt>
      <trkpt lat="44.296166896820068" lon="11.391019904986024">
        <ele>367</ele>
        <time>2004-04-04T09:13:39Z</time>
      </trkpt>
      <trkpt lat="44.296145439147949" lon="11.390805328264832">
        <ele>364</ele>
        <time>2004-04-04T09:13:45Z</time>
      </trkpt>
      <trkpt lat="44.296102523803711" lon="11.390676498413086">
        <ele>360</ele>
        <time>2004-04-04T09:13:49Z</time>
      </trkpt>
      <trkpt lat="44.296081066131592" lon="11.390569293871522">
        <ele>355</ele>
        <time>2004-04-04T09:13:52Z</time>
      </trkpt>
      <trkpt lat="44.296038066968322" lon="11.390419090166688">
        <ele>352</ele>
        <time>2004-04-04T09:13:56Z</time>
      </trkpt>
      <trkpt lat="44.296038066968322" lon="11.390397632494569">
        <ele>352</ele>
        <time>2004-04-04T09:13:57Z</time>
      </trkpt>
      <trkpt lat="44.296059608459473" lon="11.390311801806092">
        <ele>350</ele>
        <time>2004-04-04T09:14:01Z</time>
      </trkpt>
      <trkpt lat="44.296059608459473" lon="11.390290260314941">
        <ele>350</ele>
        <time>2004-04-04T09:14:03Z</time>
      </trkpt>
      <trkpt lat="44.296102523803711" lon="11.390247428789735">
        <ele>351</ele>
        <time>2004-04-04T09:14:07Z</time>
      </trkpt>
      <trkpt lat="44.296166896820068" lon="11.390225887298584">
        <ele>353</ele>
        <time>2004-04-04T09:14:12Z</time>
      </trkpt>
      <trkpt lat="44.296424388885498" lon="11.390462005510926">
        <ele>354</ele>
        <time>2004-04-04T09:14:31Z</time>
      </trkpt>
      <trkpt lat="44.296595966443419" lon="11.390633583068848">
        <ele>353</ele>
        <time>2004-04-04T09:14:59Z</time>
      </trkpt>
      <trkpt lat="44.29661750793457" lon="11.390655124559999">
        <ele>353</ele>
        <time>2004-04-04T09:15:00Z</time>
      </trkpt>
      <trkpt lat="44.296703338623047" lon="11.390912616625428">
        <ele>349</ele>
        <time>2004-04-04T09:15:04Z</time>
      </trkpt>
      <trkpt lat="44.296746337786317" lon="11.390976989641786">
        <ele>347</ele>
        <time>2004-04-04T09:15:06Z</time>
      </trkpt>
      <trkpt lat="44.296810626983643" lon="11.391041278839111">
        <ele>344</ele>
        <time>2004-04-04T09:15:11Z</time>
      </trkpt>
      <trkpt lat="44.296896541491151" lon="11.391062820330262">
        <ele>341</ele>
        <time>2004-04-04T09:15:15Z</time>
      </trkpt>
      <trkpt lat="44.296960830688477" lon="11.39108419418335">
        <ele>336</ele>
        <time>2004-04-04T09:15:17Z</time>
      </trkpt>
      <trkpt lat="44.297003662213683" lon="11.3911057356745">
        <ele>335</ele>
        <time>2004-04-04T09:15:19Z</time>
      </trkpt>
      <trkpt lat="44.297068119049072" lon="11.39112719334662">
        <ele>331</ele>
        <time>2004-04-04T09:15:21Z</time>
      </trkpt>
      <trkpt lat="44.297175407409668" lon="11.391148567199707">
        <ele>327</ele>
        <time>2004-04-04T09:15:25Z</time>
      </trkpt>
      <trkpt lat="44.297175407409668" lon="11.391148567199707">
        <ele>327</ele>
        <time>2004-04-04T09:15:26Z</time>
      </trkpt>
      <trkpt lat="44.297282695770264" lon="11.39136322773993">
        <ele>326</ele>
        <time>2004-04-04T09:15:39Z</time>
      </trkpt>
      <trkpt lat="44.297347068786621" lon="11.39136322773993">
        <ele>322</ele>
        <time>2004-04-04T09:15:45Z</time>
      </trkpt>
      <trkpt lat="44.297432899475098" lon="11.391320312395692">
        <ele>318</ele>
        <time>2004-04-04T09:15:53Z</time>
      </trkpt>
      <trkpt lat="44.297475814819336" lon="11.391406059265137">
        <ele>315</ele>
        <time>2004-04-04T09:15:57Z</time>
      </trkpt>
      <trkpt lat="44.297475814819336" lon="11.391427600756288">
        <ele>314</ele>
        <time>2004-04-04T09:15:58Z</time>
      </trkpt>
      <trkpt lat="44.297518730163574" lon="11.391448974609375">
        <ele>313</ele>
        <time>2004-04-04T09:16:01Z</time>
      </trkpt>
      <trkpt lat="44.297540187835693" lon="11.391470516100526">
        <ele>311</ele>
        <time>2004-04-04T09:16:04Z</time>
      </trkpt>
      <trkpt lat="44.297561561688781" lon="11.391491889953613">
        <ele>310</ele>
        <time>2004-04-04T09:16:07Z</time>
      </trkpt>
      <trkpt lat="44.297583103179932" lon="11.391491889953613">
        <ele>305</ele>
        <time>2004-04-04T09:16:09Z</time>
      </trkpt>
      <trkpt lat="44.29762601852417" lon="11.391491889953613">
        <ele>302</ele>
        <time>2004-04-04T09:16:12Z</time>
      </trkpt>
      <trkpt lat="44.297668933868408" lon="11.391513431444764">
        <ele>301</ele>
        <time>2004-04-04T09:16:15Z</time>
      </trkpt>
      <trkpt lat="44.297754764556885" lon="11.391470516100526">
        <ele>297</ele>
        <time>2004-04-04T09:16:19Z</time>
      </trkpt>
      <trkpt lat="44.297819137573242" lon="11.391406059265137">
        <ele>293</ele>
        <time>2004-04-04T09:16:24Z</time>
      </trkpt>
      <trkpt lat="44.2978835105896" lon="11.391320312395692">
        <ele>289</ele>
        <time>2004-04-04T09:16:28Z</time>
      </trkpt>
      <trkpt lat="44.2978835105896" lon="11.391298770904541">
        <ele>289</ele>
        <time>2004-04-04T09:16:29Z</time>
      </trkpt>
      <trkpt lat="44.297904968261719" lon="11.391255939379334">
        <ele>288</ele>
        <time>2004-04-04T09:16:31Z</time>
      </trkpt>
      <trkpt lat="44.297947883605957" lon="11.391213024035096">
        <ele>285</ele>
        <time>2004-04-04T09:16:33Z</time>
      </trkpt>
      <trkpt lat="44.297990798950195" lon="11.391148567199707">
        <ele>283</ele>
        <time>2004-04-04T09:16:35Z</time>
      </trkpt>
      <trkpt lat="44.298012340441346" lon="11.39112719334662">
        <ele>281</ele>
        <time>2004-04-04T09:16:36Z</time>
      </trkpt>
      <trkpt lat="44.298076629638672" lon="11.39112719334662">
        <ele>276</ele>
        <time>2004-04-04T09:16:40Z</time>
      </trkpt>
      <trkpt lat="44.298141002655029" lon="11.39112719334662">
        <ele>271</ele>
        <time>2004-04-04T09:16:43Z</time>
      </trkpt>
      <trkpt lat="44.298162460327148" lon="11.39112719334662">
        <ele>270</ele>
        <time>2004-04-04T09:16:46Z</time>
      </trkpt>
      <trkpt lat="44.298291206359863" lon="11.39112719334662">
        <ele>266</ele>
        <time>2004-04-04T09:16:55Z</time>
      </trkpt>
      <trkpt lat="44.29837703704834" lon="11.391191482543945">
        <ele>263</ele>
        <time>2004-04-04T09:16:58Z</time>
      </trkpt>
      <trkpt lat="44.298441410064697" lon="11.391213024035096">
        <ele>259</ele>
        <time>2004-04-04T09:17:01Z</time>
      </trkpt>
      <trkpt lat="44.298484325408936" lon="11.39108419418335">
        <ele>256</ele>
        <time>2004-04-04T09:17:07Z</time>
      </trkpt>
      <trkpt lat="44.298505783081055" lon="11.390955531969666">
        <ele>252</ele>
        <time>2004-04-04T09:17:10Z</time>
      </trkpt>
      <trkpt lat="44.298548698425293" lon="11.39086970128119">
        <ele>250</ele>
        <time>2004-04-04T09:17:12Z</time>
      </trkpt>
      <trkpt lat="44.298591613769531" lon="11.390783786773682">
        <ele>245</ele>
        <time>2004-04-04T09:17:14Z</time>
      </trkpt>
      <trkpt lat="44.298655986785889" lon="11.390676498413086">
        <ele>242</ele>
        <time>2004-04-04T09:17:19Z</time>
      </trkpt>
      <trkpt lat="44.298655986785889" lon="11.390676498413086">
        <ele>242</ele>
        <time>2004-04-04T09:17:23Z</time>
      </trkpt>
      <trkpt lat="44.298720359802246" lon="11.390762412920594">
        <ele>240</ele>
        <time>2004-04-04T09:17:28Z</time>
      </trkpt>
      <trkpt lat="44.298763275146484" lon="11.390848159790039">
        <ele>237</ele>
        <time>2004-04-04T09:17:33Z</time>
      </trkpt>
      <trkpt lat="44.298784732818604" lon="11.390848159790039">
        <ele>237</ele>
        <time>2004-04-04T09:17:34Z</time>
      </trkpt>
      <trkpt lat="44.298806190490723" lon="11.390826785936952">
        <ele>236</ele>
        <time>2004-04-04T09:17:36Z</time>
      </trkpt>
      <trkpt lat="44.298892021179199" lon="11.390805328264832">
        <ele>234</ele>
        <time>2004-04-04T09:17:45Z</time>
      </trkpt>
      <trkpt lat="44.298913478851318" lon="11.390891075134277">
        <ele>234</ele>
        <time>2004-04-04T09:18:06Z</time>
      </trkpt>
      <trkpt lat="44.298956394195557" lon="11.390912616625428">
        <ele>237</ele>
        <time>2004-04-04T09:30:48Z</time>
      </trkpt>
      <trkpt lat="44.298956394195557" lon="11.390826785936952">
        <ele>237</ele>
        <time>2004-04-04T09:31:02Z</time>
      </trkpt>
      <trkpt lat="44.298934936523438" lon="11.390783786773682">
        <ele>237</ele>
        <time>2004-04-04T09:31:09Z</time>
      </trkpt>
      <trkpt lat="44.298913478851318" lon="11.39033317565918">
        <ele>238</ele>
        <time>2004-04-04T09:31:24Z</time>
      </trkpt>
      <trkpt lat="44.298548698425293" lon="11.389710986986756">
        <ele>239</ele>
        <time>2004-04-04T09:31:43Z</time>
      </trkpt>
      <trkpt lat="44.298312664031982" lon="11.388959884643555">
        <ele>239</ele>
        <time>2004-04-04T09:32:01Z</time>
      </trkpt>
      <trkpt lat="44.298269664868712" lon="11.38838061131537">
        <ele>240</ele>
        <time>2004-04-04T09:32:14Z</time>
      </trkpt>
      <trkpt lat="44.298419868573546" lon="11.387672508135438">
        <ele>241</ele>
        <time>2004-04-04T09:32:32Z</time>
      </trkpt>
      <trkpt lat="44.298398494720459" lon="11.386964404955506">
        <ele>243</ele>
        <time>2004-04-04T09:32:54Z</time>
      </trkpt>
      <trkpt lat="44.298398494720459" lon="11.386878490447998">
        <ele>243</ele>
        <time>2004-04-04T09:32:56Z</time>
      </trkpt>
      <trkpt lat="44.29882756434381" lon="11.386406505480409">
        <ele>244</ele>
        <time>2004-04-04T09:33:15Z</time>
      </trkpt>
      <trkpt lat="44.299170970916748" lon="11.386084640398622">
        <ele>245</ele>
        <time>2004-04-04T09:33:31Z</time>
      </trkpt>
      <trkpt lat="44.299643039703369" lon="11.385762691497803">
        <ele>247</ele>
        <time>2004-04-04T09:33:52Z</time>
      </trkpt>
      <trkpt lat="44.299707412719727" lon="11.385741317644715">
        <ele>248</ele>
        <time>2004-04-04T09:33:55Z</time>
      </trkpt>
      <trkpt lat="44.300029277801514" lon="11.385505283251405">
        <ele>250</ele>
        <time>2004-04-04T09:34:12Z</time>
      </trkpt>
      <trkpt lat="44.300265312194824" lon="11.385161876678467">
        <ele>252</ele>
        <time>2004-04-04T09:34:29Z</time>
      </trkpt>
      <trkpt lat="44.300501262769103" lon="11.384861469268799">
        <ele>254</ele>
        <time>2004-04-04T09:34:45Z</time>
      </trkpt>
      <trkpt lat="44.300780296325684" lon="11.384303569793701">
        <ele>254</ele>
        <time>2004-04-04T09:35:05Z</time>
      </trkpt>
      <trkpt lat="44.301102161407471" lon="11.383788585662842">
        <ele>256</ele>
        <time>2004-04-04T09:35:27Z</time>
      </trkpt>
      <trkpt lat="44.301424026489258" lon="11.383402431383729">
        <ele>259</ele>
        <time>2004-04-04T09:35:45Z</time>
      </trkpt>
      <trkpt lat="44.301552772521973" lon="11.382973194122314">
        <ele>261</ele>
        <time>2004-04-04T09:36:03Z</time>
      </trkpt>
      <trkpt lat="44.301488399505615" lon="11.382501209154725">
        <ele>264</ele>
        <time>2004-04-04T09:36:21Z</time>
      </trkpt>
      <trkpt lat="44.301445484161377" lon="11.382050598040223">
        <ele>266</ele>
        <time>2004-04-04T09:36:39Z</time>
      </trkpt>
      <trkpt lat="44.301574230194092" lon="11.381535613909364">
        <ele>268</ele>
        <time>2004-04-04T09:37:00Z</time>
      </trkpt>
      <trkpt lat="44.301660060882568" lon="11.381063461303711">
        <ele>271</ele>
        <time>2004-04-04T09:37:21Z</time>
      </trkpt>
      <trkpt lat="44.301424026489258" lon="11.380805969238281">
        <ele>273</ele>
        <time>2004-04-04T09:37:37Z</time>
      </trkpt>
      <trkpt lat="44.30112361907959" lon="11.380956172943115">
        <ele>275</ele>
        <time>2004-04-04T09:37:54Z</time>
      </trkpt>
      <trkpt lat="44.301016330718994" lon="11.381428325548768">
        <ele>277</ele>
        <time>2004-04-04T09:38:13Z</time>
      </trkpt>
      <trkpt lat="44.300801837816834" lon="11.381921768188477">
        <ele>279</ele>
        <time>2004-04-04T09:38:36Z</time>
      </trkpt>
      <trkpt lat="44.300651466473937" lon="11.382222175598145">
        <ele>282</ele>
        <time>2004-04-04T09:38:51Z</time>
      </trkpt>
      <trkpt lat="44.300394058227539" lon="11.382694328203797">
        <ele>285</ele>
        <time>2004-04-04T09:39:15Z</time>
      </trkpt>
      <trkpt lat="44.300136566162109" lon="11.383059108629823">
        <ele>289</ele>
        <time>2004-04-04T09:39:34Z</time>
      </trkpt>
      <trkpt lat="44.299814701080322" lon="11.383423889055848">
        <ele>289</ele>
        <time>2004-04-04T09:39:54Z</time>
      </trkpt>
      <trkpt lat="44.299471378326416" lon="11.383724296465516">
        <ele>291</ele>
        <time>2004-04-04T09:40:13Z</time>
      </trkpt>
      <trkpt lat="44.299063682556152" lon="11.383960330858827">
        <ele>292</ele>
        <time>2004-04-04T09:40:33Z</time>
      </trkpt>
      <trkpt lat="44.298806190490723" lon="11.383960330858827">
        <ele>296</ele>
        <time>2004-04-04T09:40:47Z</time>
      </trkpt>
      <trkpt lat="44.298784732818604" lon="11.38387450017035">
        <ele>296</ele>
        <time>2004-04-04T09:40:50Z</time>
      </trkpt>
      <trkpt lat="44.298892021179199" lon="11.383788585662842">
        <ele>297</ele>
        <time>2004-04-04T09:40:57Z</time>
      </trkpt>
      <trkpt lat="44.29936408996582" lon="11.383531093597412">
        <ele>300</ele>
        <time>2004-04-04T09:41:22Z</time>
      </trkpt>
      <trkpt lat="44.299514293670654" lon="11.383273685351014">
        <ele>303</ele>
        <time>2004-04-04T09:41:34Z</time>
      </trkpt>
      <trkpt lat="44.299707412719727" lon="11.382544124498963">
        <ele>306</ele>
        <time>2004-04-04T09:42:00Z</time>
      </trkpt>
      <trkpt lat="44.299707412719727" lon="11.382501209154725">
        <ele>306</ele>
        <time>2004-04-04T09:42:02Z</time>
      </trkpt>
      <trkpt lat="44.299793159589171" lon="11.382029140368104">
        <ele>310</ele>
        <time>2004-04-04T09:42:18Z</time>
      </trkpt>
      <trkpt lat="44.299707412719727" lon="11.381492698565125">
        <ele>313</ele>
        <time>2004-04-04T09:42:39Z</time>
      </trkpt>
      <trkpt lat="44.299707412719727" lon="11.380977714434266">
        <ele>315</ele>
        <time>2004-04-04T09:42:58Z</time>
      </trkpt>
      <trkpt lat="44.299836158752441" lon="11.380720222368836">
        <ele>318</ele>
        <time>2004-04-04T09:43:10Z</time>
      </trkpt>
      <trkpt lat="44.299964904785156" lon="11.380398273468018">
        <ele>321</ele>
        <time>2004-04-04T09:43:25Z</time>
      </trkpt>
      <trkpt lat="44.299900531768799" lon="11.379926288500428">
        <ele>322</ele>
        <time>2004-04-04T09:43:44Z</time>
      </trkpt>
      <trkpt lat="44.299793159589171" lon="11.379454219713807">
        <ele>325</ele>
        <time>2004-04-04T09:44:03Z</time>
      </trkpt>
      <trkpt lat="44.299750328063965" lon="11.379132270812988">
        <ele>326</ele>
        <time>2004-04-04T09:44:17Z</time>
      </trkpt>
      <trkpt lat="44.29987907409668" lon="11.378746116533875">
        <ele>329</ele>
        <time>2004-04-04T09:44:35Z</time>
      </trkpt>
      <trkpt lat="44.300007820129395" lon="11.378552997484803">
        <ele>330</ele>
        <time>2004-04-04T09:44:46Z</time>
      </trkpt>
      <trkpt lat="44.299814701080322" lon="11.378359794616699">
        <ele>332</ele>
        <time>2004-04-04T09:45:03Z</time>
      </trkpt>
      <trkpt lat="44.29962158203125" lon="11.378660285845399">
        <ele>335</ele>
        <time>2004-04-04T09:45:19Z</time>
      </trkpt>
      <trkpt lat="44.299407005310059" lon="11.379024982452393">
        <ele>337</ele>
        <time>2004-04-04T09:45:38Z</time>
      </trkpt>
      <trkpt lat="44.299385463818908" lon="11.379067897796631">
        <ele>338</ele>
        <time>2004-04-04T09:45:40Z</time>
      </trkpt>
      <trkpt lat="44.299299716949463" lon="11.379475593566895">
        <ele>340</ele>
        <time>2004-04-04T09:45:58Z</time>
      </trkpt>
      <trkpt lat="44.299149513244629" lon="11.379797458648682">
        <ele>343</ele>
        <time>2004-04-04T09:46:15Z</time>
      </trkpt>
      <trkpt lat="44.29887056350708" lon="11.379969203844666">
        <ele>346</ele>
        <time>2004-04-04T09:46:34Z</time>
      </trkpt>
      <trkpt lat="44.298548698425293" lon="11.379861915484071">
        <ele>349</ele>
        <time>2004-04-04T09:46:55Z</time>
      </trkpt>
      <trkpt lat="44.29837703704834" lon="11.379625797271729">
        <ele>351</ele>
        <time>2004-04-04T09:47:09Z</time>
      </trkpt>
      <trkpt lat="44.298312664031982" lon="11.379282474517822">
        <ele>354</ele>
        <time>2004-04-04T09:47:26Z</time>
      </trkpt>
      <trkpt lat="44.29837703704834" lon="11.378896320238709">
        <ele>357</ele>
        <time>2004-04-04T09:47:44Z</time>
      </trkpt>
      <trkpt lat="44.298484325408936" lon="11.378531539812684">
        <ele>359</ele>
        <time>2004-04-04T09:48:02Z</time>
      </trkpt>
      <trkpt lat="44.29863452911377" lon="11.378038013353944">
        <ele>361</ele>
        <time>2004-04-04T09:48:24Z</time>
      </trkpt>
      <trkpt lat="44.29887056350708" lon="11.377694690600038">
        <ele>364</ele>
        <time>2004-04-04T09:48:43Z</time>
      </trkpt>
      <trkpt lat="44.299128139391541" lon="11.377458572387695">
        <ele>368</ele>
        <time>2004-04-04T09:49:00Z</time>
      </trkpt>
      <trkpt lat="44.299471378326416" lon="11.377179706469178">
        <ele>371</ele>
        <time>2004-04-04T09:49:21Z</time>
      </trkpt>
      <trkpt lat="44.299814701080322" lon="11.37687929905951">
        <ele>374</ele>
        <time>2004-04-04T09:49:42Z</time>
      </trkpt>
      <trkpt lat="44.300200939178467" lon="11.376492977142334">
        <ele>377</ele>
        <time>2004-04-04T09:50:06Z</time>
      </trkpt>
      <trkpt lat="44.300415515899658" lon="11.376321399584413">
        <ele>380</ele>
        <time>2004-04-04T09:50:19Z</time>
      </trkpt>
      <trkpt lat="44.300780296325684" lon="11.376321399584413">
        <ele>382</ele>
        <time>2004-04-04T09:50:39Z</time>
      </trkpt>
      <trkpt lat="44.30112361907959" lon="11.376450061798096">
        <ele>380</ele>
        <time>2004-04-04T09:50:59Z</time>
      </trkpt>
      <trkpt lat="44.301488399505615" lon="11.376664722338319">
        <ele>379</ele>
        <time>2004-04-04T09:51:17Z</time>
      </trkpt>
      <trkpt lat="44.301767265424132" lon="11.376814926043153">
        <ele>379</ele>
        <time>2004-04-04T09:51:29Z</time>
      </trkpt>
      <trkpt lat="44.301981925964355" lon="11.376857841387391">
        <ele>378</ele>
        <time>2004-04-04T09:51:34Z</time>
      </trkpt>
      <trkpt lat="44.30232516489923" lon="11.376900672912598">
        <ele>376</ele>
        <time>2004-04-04T09:51:41Z</time>
      </trkpt>
      <trkpt lat="44.302604198455811" lon="11.376922214403749">
        <ele>376</ele>
        <time>2004-04-04T09:51:46Z</time>
      </trkpt>
      <trkpt lat="44.303097724914551" lon="11.377158164978027">
        <ele>375</ele>
        <time>2004-04-04T09:51:59Z</time>
      </trkpt>
      <trkpt lat="44.303634166717529" lon="11.377501487731934">
        <ele>376</ele>
        <time>2004-04-04T09:52:17Z</time>
      </trkpt>
      <trkpt lat="44.30410623550415" lon="11.377801895141602">
        <ele>378</ele>
        <time>2004-04-04T09:52:36Z</time>
      </trkpt>
      <trkpt lat="44.304513931274414" lon="11.378059387207031">
        <ele>381</ele>
        <time>2004-04-04T09:52:57Z</time>
      </trkpt>
      <trkpt lat="44.304964458569884" lon="11.378338420763612">
        <ele>384</ele>
        <time>2004-04-04T09:53:19Z</time>
      </trkpt>
      <trkpt lat="44.30537223815918" lon="11.378617286682129">
        <ele>385</ele>
        <time>2004-04-04T09:53:39Z</time>
      </trkpt>
      <trkpt lat="44.305801391601563" lon="11.378874778747559">
        <ele>385</ele>
        <time>2004-04-04T09:53:55Z</time>
      </trkpt>
      <trkpt lat="44.306166172027588" lon="11.379218185320497">
        <ele>383</ele>
        <time>2004-04-04T09:54:11Z</time>
      </trkpt>
      <trkpt lat="44.306445121765137" lon="11.379518592730165">
        <ele>384</ele>
        <time>2004-04-04T09:54:26Z</time>
      </trkpt>
      <trkpt lat="44.306724071502686" lon="11.379797458648682">
        <ele>387</ele>
        <time>2004-04-04T09:54:44Z</time>
      </trkpt>
      <trkpt lat="44.306981563568115" lon="11.380076492205262">
        <ele>388</ele>
        <time>2004-04-04T09:55:04Z</time>
      </trkpt>
      <trkpt lat="44.307281970977783" lon="11.380419814959168">
        <ele>391</ele>
        <time>2004-04-04T09:55:26Z</time>
      </trkpt>
      <trkpt lat="44.307496463879943" lon="11.38063439168036">
        <ele>394</ele>
        <time>2004-04-04T09:55:42Z</time>
      </trkpt>
      <trkpt lat="44.307711124420166" lon="11.38087042607367">
        <ele>397</ele>
        <time>2004-04-04T09:56:00Z</time>
      </trkpt>
      <trkpt lat="44.307904159650207" lon="11.381063461303711">
        <ele>400</ele>
        <time>2004-04-04T09:56:15Z</time>
      </trkpt>
      <trkpt lat="44.308097362518311" lon="11.381278121843934">
        <ele>403</ele>
        <time>2004-04-04T09:56:33Z</time>
      </trkpt>
      <trkpt lat="44.308333396911621" lon="11.381535613909364">
        <ele>407</ele>
        <time>2004-04-04T09:56:52Z</time>
      </trkpt>
      <trkpt lat="44.308333396911621" lon="11.381535613909364">
        <ele>407</ele>
        <time>2004-04-04T09:56:53Z</time>
      </trkpt>
      <trkpt lat="44.308526515960693" lon="11.381750190630555">
        <ele>410</ele>
        <time>2004-04-04T09:57:09Z</time>
      </trkpt>
      <trkpt lat="44.308741092681885" lon="11.381964683532715">
        <ele>413</ele>
        <time>2004-04-04T09:57:26Z</time>
      </trkpt>
      <trkpt lat="44.308934211730957" lon="11.382157886400819">
        <ele>415</ele>
        <time>2004-04-04T09:57:44Z</time>
      </trkpt>
      <trkpt lat="44.308977127075195" lon="11.382200801745057">
        <ele>416</ele>
        <time>2004-04-04T09:57:58Z</time>
      </trkpt>
      <trkpt lat="44.308977127075195" lon="11.382200801745057">
        <ele>416</ele>
        <time>2004-04-04T09:58:07Z</time>
      </trkpt>
      <trkpt lat="44.30884838104248" lon="11.382651412859559">
        <ele>419</ele>
        <time>2004-04-04T09:58:20Z</time>
      </trkpt>
      <trkpt lat="44.308826923370361" lon="11.382737159729004">
        <ele>420</ele>
        <time>2004-04-04T09:58:23Z</time>
      </trkpt>
      <trkpt lat="44.308805465698242" lon="11.383016193285584">
        <ele>424</ele>
        <time>2004-04-04T09:58:33Z</time>
      </trkpt>
      <trkpt lat="44.308762466534972" lon="11.383402431383729">
        <ele>426</ele>
        <time>2004-04-04T09:58:51Z</time>
      </trkpt>
      <trkpt lat="44.308698177337646" lon="11.383724296465516">
        <ele>427</ele>
        <time>2004-04-04T09:59:10Z</time>
      </trkpt>
      <trkpt lat="44.308655261993408" lon="11.384024703875184">
        <ele>427</ele>
        <time>2004-04-04T09:59:28Z</time>
      </trkpt>
      <trkpt lat="44.308505058288574" lon="11.384389484301209">
        <ele>425</ele>
        <time>2004-04-04T09:59:46Z</time>
      </trkpt>
      <trkpt lat="44.308376312255859" lon="11.384561061859131">
        <ele>421</ele>
        <time>2004-04-04T09:59:54Z</time>
      </trkpt>
      <trkpt lat="44.308290481567383" lon="11.38462551869452">
        <ele>419</ele>
        <time>2004-04-04T09:59:57Z</time>
      </trkpt>
      <trkpt lat="44.308204567059875" lon="11.384668434038758">
        <ele>417</ele>
        <time>2004-04-04T10:00:00Z</time>
      </trkpt>
      <trkpt lat="44.30811882019043" lon="11.38462551869452">
        <ele>414</ele>
        <time>2004-04-04T10:00:04Z</time>
      </trkpt>
      <trkpt lat="44.308054363355041" lon="11.384518230333924">
        <ele>413</ele>
        <time>2004-04-04T10:00:06Z</time>
      </trkpt>
      <trkpt lat="44.307882785797119" lon="11.384561061859131">
        <ele>409</ele>
        <time>2004-04-04T10:00:11Z</time>
      </trkpt>
      <trkpt lat="44.307861328125" lon="11.384582603350282">
        <ele>409</ele>
        <time>2004-04-04T10:00:12Z</time>
      </trkpt>
      <trkpt lat="44.307839870452881" lon="11.38462551869452">
        <ele>408</ele>
        <time>2004-04-04T10:00:14Z</time>
      </trkpt>
      <trkpt lat="44.307775497436523" lon="11.384711265563965">
        <ele>407</ele>
        <time>2004-04-04T10:00:19Z</time>
      </trkpt>
      <trkpt lat="44.307775497436523" lon="11.384711265563965">
        <ele>405</ele>
        <time>2004-04-04T10:00:30Z</time>
      </trkpt>
      <trkpt lat="44.307775497436523" lon="11.384711265563965">
        <ele>405</ele>
        <time>2004-04-04T10:01:14Z</time>
      </trkpt>
      <trkpt lat="44.307775497436523" lon="11.384711265563965">
        <ele>405</ele>
        <time>2004-04-04T10:02:16Z</time>
      </trkpt>
      <trkpt lat="44.307775497436523" lon="11.384711265563965">
        <ele>405</ele>
        <time>2004-04-04T10:02:29Z</time>
      </trkpt>
      <trkpt lat="44.307775497436523" lon="11.384711265563965">
        <ele>401</ele>
        <time>2004-04-04T10:02:35Z</time>
      </trkpt>
      <trkpt lat="44.307775497436523" lon="11.384711265563965">
        <ele>400</ele>
        <time>2004-04-04T10:02:38Z</time>
      </trkpt>
      <trkpt lat="44.307260513305664" lon="11.385312080383301">
        <ele>396</ele>
        <time>2004-04-04T10:02:43Z</time>
      </trkpt>
      <trkpt lat="44.307196140289307" lon="11.385397994890809">
        <ele>396</ele>
        <time>2004-04-04T10:02:44Z</time>
      </trkpt>
      <trkpt lat="44.306981563568115" lon="11.385698402300477">
        <ele>392</ele>
        <time>2004-04-04T10:02:47Z</time>
      </trkpt>
      <trkpt lat="44.306638240814209" lon="11.385891521349549">
        <ele>388</ele>
        <time>2004-04-04T10:02:51Z</time>
      </trkpt>
      <trkpt lat="44.30635929107666" lon="11.385891521349549">
        <ele>386</ele>
        <time>2004-04-04T10:02:55Z</time>
      </trkpt>
      <trkpt lat="44.306209087371826" lon="11.385912895202637">
        <ele>384</ele>
        <time>2004-04-04T10:02:57Z</time>
      </trkpt>
      <trkpt lat="44.305779933929443" lon="11.386106098070741">
        <ele>380</ele>
        <time>2004-04-04T10:03:02Z</time>
      </trkpt>
      <trkpt lat="44.305694103240967" lon="11.386149013414979">
        <ele>379</ele>
        <time>2004-04-04T10:03:03Z</time>
      </trkpt>
      <trkpt lat="44.305543899536133" lon="11.386191928759217">
        <ele>378</ele>
        <time>2004-04-04T10:03:05Z</time>
      </trkpt>
      <trkpt lat="44.305222034454346" lon="11.386299217119813">
        <ele>375</ele>
        <time>2004-04-04T10:03:09Z</time>
      </trkpt>
      <trkpt lat="44.305136203765869" lon="11.3863205909729">
        <ele>375</ele>
        <time>2004-04-04T10:03:10Z</time>
      </trkpt>
      <trkpt lat="44.304857337847352" lon="11.386470794677734">
        <ele>373</ele>
        <time>2004-04-04T10:03:14Z</time>
      </trkpt>
      <trkpt lat="44.304492473602295" lon="11.38657808303833">
        <ele>370</ele>
        <time>2004-04-04T10:03:19Z</time>
      </trkpt>
      <trkpt lat="44.304342269897461" lon="11.386599624529481">
        <ele>369</ele>
        <time>2004-04-04T10:03:21Z</time>
      </trkpt>
      <trkpt lat="44.304041862487793" lon="11.386685371398926">
        <ele>367</ele>
        <time>2004-04-04T10:03:25Z</time>
      </trkpt>
      <trkpt lat="44.303913116455078" lon="11.386749828234315">
        <ele>367</ele>
        <time>2004-04-04T10:03:27Z</time>
      </trkpt>
      <trkpt lat="44.303483963012695" lon="11.387221897020936">
        <ele>364</ele>
        <time>2004-04-04T10:03:36Z</time>
      </trkpt>
      <trkpt lat="44.303097724914551" lon="11.387350559234619">
        <ele>363</ele>
        <time>2004-04-04T10:03:46Z</time>
      </trkpt>
      <trkpt lat="44.302539825439453" lon="11.387565219774842">
        <ele>364</ele>
        <time>2004-04-04T10:04:04Z</time>
      </trkpt>
      <trkpt lat="44.302303791046143" lon="11.387844085693359">
        <ele>364</ele>
        <time>2004-04-04T10:04:17Z</time>
      </trkpt>
      <trkpt lat="44.302303791046143" lon="11.38786562718451">
        <ele>363</ele>
        <time>2004-04-04T10:04:30Z</time>
      </trkpt>
      <trkpt lat="44.302303791046143" lon="11.38786562718451">
        <ele>363</ele>
        <time>2004-04-04T10:04:54Z</time>
      </trkpt>
      <trkpt lat="44.302196502685547" lon="11.388101577758789">
        <ele>363</ele>
        <time>2004-04-04T10:05:04Z</time>
      </trkpt>
      <trkpt lat="44.302196502685547" lon="11.388208866119385">
        <ele>362</ele>
        <time>2004-04-04T10:05:06Z</time>
      </trkpt>
      <trkpt lat="44.302260875701904" lon="11.388509273529053">
        <ele>358</ele>
        <time>2004-04-04T10:05:12Z</time>
      </trkpt>
      <trkpt lat="44.302282333374023" lon="11.388552188873291">
        <ele>356</ele>
        <time>2004-04-04T10:05:14Z</time>
      </trkpt>
      <trkpt lat="44.302282333374023" lon="11.388595188036561">
        <ele>356</ele>
        <time>2004-04-04T10:05:16Z</time>
      </trkpt>
      <trkpt lat="44.302260875701904" lon="11.388681018725038">
        <ele>353</ele>
        <time>2004-04-04T10:05:24Z</time>
      </trkpt>
      <trkpt lat="44.302260875701904" lon="11.388702392578125">
        <ele>353</ele>
        <time>2004-04-04T10:05:33Z</time>
      </trkpt>
      <trkpt lat="44.302411079406738" lon="11.389045799151063">
        <ele>351</ele>
        <time>2004-04-04T10:05:47Z</time>
      </trkpt>
      <trkpt lat="44.302539825439453" lon="11.389517784118652">
        <ele>348</ele>
        <time>2004-04-04T10:05:53Z</time>
      </trkpt>
      <trkpt lat="44.302582740783691" lon="11.389753902330995">
        <ele>347</ele>
        <time>2004-04-04T10:05:55Z</time>
      </trkpt>
      <trkpt lat="44.302561283111572" lon="11.39011868275702">
        <ele>345</ele>
        <time>2004-04-04T10:05:58Z</time>
      </trkpt>
      <trkpt lat="44.302411079406738" lon="11.390891075134277">
        <ele>340</ele>
        <time>2004-04-04T10:06:03Z</time>
      </trkpt>
      <trkpt lat="44.302411079406738" lon="11.390891075134277">
        <ele>339</ele>
        <time>2004-04-04T10:06:04Z</time>
      </trkpt>
      <trkpt lat="44.302239418029785" lon="11.390955531969666">
        <ele>335</ele>
        <time>2004-04-04T10:06:08Z</time>
      </trkpt>
      <trkpt lat="44.302003383636475" lon="11.391041278839111">
        <ele>328</ele>
        <time>2004-04-04T10:06:11Z</time>
      </trkpt>
      <trkpt lat="44.301960468292236" lon="11.3911057356745">
        <ele>326</ele>
        <time>2004-04-04T10:06:12Z</time>
      </trkpt>
      <trkpt lat="44.302024841308594" lon="11.391448974609375">
        <ele>322</ele>
        <time>2004-04-04T10:06:18Z</time>
      </trkpt>
      <trkpt lat="44.302411079406738" lon="11.391792297363281">
        <ele>316</ele>
        <time>2004-04-04T10:06:23Z</time>
      </trkpt>
      <trkpt lat="44.302604198455811" lon="11.391963958740234">
        <ele>313</ele>
        <time>2004-04-04T10:06:25Z</time>
      </trkpt>
      <trkpt lat="44.302797317504883" lon="11.392135703936219">
        <ele>308</ele>
        <time>2004-04-04T10:06:27Z</time>
      </trkpt>
      <trkpt lat="44.302990436553955" lon="11.392307281494141">
        <ele>303</ele>
        <time>2004-04-04T10:06:29Z</time>
      </trkpt>
      <trkpt lat="44.303162097930908" lon="11.392436111345887">
        <ele>299</ele>
        <time>2004-04-04T10:06:31Z</time>
      </trkpt>
      <trkpt lat="44.303419589996338" lon="11.392629230394959">
        <ele>294</ele>
        <time>2004-04-04T10:06:34Z</time>
      </trkpt>
      <trkpt lat="44.303526878356934" lon="11.392693603411317">
        <ele>291</ele>
        <time>2004-04-04T10:06:35Z</time>
      </trkpt>
      <trkpt lat="44.303762912750244" lon="11.392865180969238">
        <ele>286</ele>
        <time>2004-04-04T10:06:38Z</time>
      </trkpt>
      <trkpt lat="44.303827285766602" lon="11.392908096313477">
        <ele>284</ele>
        <time>2004-04-04T10:06:39Z</time>
      </trkpt>
      <trkpt lat="44.303934574127197" lon="11.39331579208374">
        <ele>277</ele>
        <time>2004-04-04T10:06:44Z</time>
      </trkpt>
      <trkpt lat="44.303913116455078" lon="11.393551910296082">
        <ele>273</ele>
        <time>2004-04-04T10:06:46Z</time>
      </trkpt>
      <trkpt lat="44.303827285766602" lon="11.393723487854004">
        <ele>270</ele>
        <time>2004-04-04T10:06:48Z</time>
      </trkpt>
      <trkpt lat="44.303698539733887" lon="11.393916690722108">
        <ele>267</ele>
        <time>2004-04-04T10:06:50Z</time>
      </trkpt>
      <trkpt lat="44.303591167554259" lon="11.394217098131776">
        <ele>261</ele>
        <time>2004-04-04T10:06:53Z</time>
      </trkpt>
      <trkpt lat="44.303569793701172" lon="11.394324386492372">
        <ele>259</ele>
        <time>2004-04-04T10:06:54Z</time>
      </trkpt>
      <trkpt lat="44.303483963012695" lon="11.394689083099365">
        <ele>255</ele>
        <time>2004-04-04T10:06:57Z</time>
      </trkpt>
      <trkpt lat="44.303483963012695" lon="11.394903659820557">
        <ele>251</ele>
        <time>2004-04-04T10:06:59Z</time>
      </trkpt>
      <trkpt lat="44.303483963012695" lon="11.395011032000184">
        <ele>249</ele>
        <time>2004-04-04T10:07:00Z</time>
      </trkpt>
      <trkpt lat="44.303548336029053" lon="11.395182693377137">
        <ele>244</ele>
        <time>2004-04-04T10:07:03Z</time>
      </trkpt>
      <trkpt lat="44.303741538897157" lon="11.395289897918701">
        <ele>240</ele>
        <time>2004-04-04T10:07:07Z</time>
      </trkpt>
      <trkpt lat="44.304041862487793" lon="11.395354270935059">
        <ele>236</ele>
        <time>2004-04-04T10:07:10Z</time>
      </trkpt>
      <trkpt lat="44.304406559094787" lon="11.395611763000488">
        <ele>226</ele>
        <time>2004-04-04T10:07:14Z</time>
      </trkpt>
      <trkpt lat="44.304513931274414" lon="11.395998084917665">
        <ele>223</ele>
        <time>2004-04-04T10:07:17Z</time>
      </trkpt>
      <trkpt lat="44.304685592651367" lon="11.396298492327332">
        <ele>222</ele>
        <time>2004-04-04T10:07:20Z</time>
      </trkpt>
      <trkpt lat="44.305307865142822" lon="11.396920680999756">
        <ele>219</ele>
        <time>2004-04-04T10:07:29Z</time>
      </trkpt>
      <trkpt lat="44.30541523732245" lon="11.396985137835145">
        <ele>219</ele>
        <time>2004-04-04T10:07:31Z</time>
      </trkpt>
      <trkpt lat="44.305758476257324" lon="11.397199714556336">
        <ele>218</ele>
        <time>2004-04-04T10:07:38Z</time>
      </trkpt>
      <trkpt lat="44.305972969159484" lon="11.39732837677002">
        <ele>218</ele>
        <time>2004-04-04T10:07:43Z</time>
      </trkpt>
      <trkpt lat="44.306488037109375" lon="11.397585868835449">
        <ele>218</ele>
        <time>2004-04-04T10:07:54Z</time>
      </trkpt>
      <trkpt lat="44.307153224945068" lon="11.397907817736268">
        <ele>216</ele>
        <time>2004-04-04T10:08:11Z</time>
      </trkpt>
      <trkpt lat="44.30736780166626" lon="11.398015106096864">
        <ele>217</ele>
        <time>2004-04-04T10:08:24Z</time>
      </trkpt>
      <trkpt lat="44.30736780166626" lon="11.398015106096864">
        <ele>217</ele>
        <time>2004-04-04T10:08:40Z</time>
      </trkpt>
      <trkpt lat="44.30736780166626" lon="11.398551464080811">
        <ele>219</ele>
        <time>2004-04-04T10:08:55Z</time>
      </trkpt>
      <trkpt lat="44.307346260175109" lon="11.398573005571961">
        <ele>217</ele>
        <time>2004-04-04T10:09:08Z</time>
      </trkpt>
      <trkpt lat="44.307346260175109" lon="11.398894786834717">
        <ele>218</ele>
        <time>2004-04-04T10:09:23Z</time>
      </trkpt>
      <trkpt lat="44.307346260175109" lon="11.398958237841725">
        <ele>218</ele>
        <time>1989-12-31T00:00:00Z</time>
      </trkpt>
      <trkpt lat="44.307904159650207" lon="11.399087905883789">
        <ele>235</ele>
        <time>2004-02-08T10:25:35Z</time>
      </trkpt>
      <trkpt lat="44.308719635009766" lon="11.399216735735536">
        <ele>236</ele>
        <time>2004-02-08T10:25:51Z</time>
      </trkpt>
      <trkpt lat="44.309063041582704" lon="11.399474060162902">
        <ele>237</ele>
        <time>2004-02-08T10:25:59Z</time>
      </trkpt>
      <trkpt lat="44.31011438369751" lon="11.400268077850342">
        <ele>238</ele>
        <time>2004-02-08T10:26:22Z</time>
      </trkpt>
      <trkpt lat="44.310221672058105" lon="11.40031099319458">
        <ele>238</ele>
        <time>2004-02-08T10:26:24Z</time>
      </trkpt>
      <trkpt lat="44.311273097991943" lon="11.400504112243652">
        <ele>237</ele>
        <time>2004-02-08T10:26:43Z</time>
      </trkpt>
      <trkpt lat="44.312024116516113" lon="11.400525569915771">
        <ele>235</ele>
        <time>2004-02-08T10:26:56Z</time>
      </trkpt>
      <trkpt lat="44.312753677368164" lon="11.400847434997559">
        <ele>233</ele>
        <time>2004-02-08T10:27:06Z</time>
      </trkpt>
      <trkpt lat="44.312968337908387" lon="11.400997638702393">
        <ele>232</ele>
        <time>2004-02-08T10:27:09Z</time>
      </trkpt>
      <trkpt lat="44.313311576843262" lon="11.401297962293029">
        <ele>231</ele>
        <time>2004-02-08T10:27:14Z</time>
      </trkpt>
      <trkpt lat="44.313526237383485" lon="11.401705741882324">
        <ele>232</ele>
        <time>2004-02-08T10:27:19Z</time>
      </trkpt>
      <trkpt lat="44.314234340563416" lon="11.402306640520692">
        <ele>230</ele>
        <time>2004-02-08T10:27:32Z</time>
      </trkpt>
      <trkpt lat="44.315028190612793" lon="11.402263641357422">
        <ele>230</ele>
        <time>2004-02-08T10:27:45Z</time>
      </trkpt>
      <trkpt lat="44.315714836120605" lon="11.402842998504639">
        <ele>231</ele>
        <time>2004-02-08T10:27:59Z</time>
      </trkpt>
      <trkpt lat="44.316380023956299" lon="11.403594017028809">
        <ele>229</ele>
        <time>2004-02-08T10:28:14Z</time>
      </trkpt>
      <trkpt lat="44.316465938463807" lon="11.40355110168457">
        <ele>229</ele>
        <time>2004-02-08T10:28:16Z</time>
      </trkpt>
      <trkpt lat="44.317817687988281" lon="11.403250694274902">
        <ele>231</ele>
        <time>2004-02-08T10:28:39Z</time>
      </trkpt>
      <trkpt lat="44.318032264709473" lon="11.403164863586426">
        <ele>231</ele>
        <time>2004-02-08T10:28:44Z</time>
      </trkpt>
      <trkpt lat="44.318482875823975" lon="11.402971660718322">
        <ele>232</ele>
        <time>2004-02-08T10:28:54Z</time>
      </trkpt>
      <trkpt lat="44.319319725036621" lon="11.403207778930664">
        <ele>233</ele>
        <time>2004-02-08T10:29:12Z</time>
      </trkpt>
      <trkpt lat="44.319469928741455" lon="11.403272235766053">
        <ele>232</ele>
        <time>2004-02-08T10:29:15Z</time>
      </trkpt>
      <trkpt lat="44.319791793823242" lon="11.404087459668517">
        <ele>231</ele>
        <time>2004-02-08T10:29:26Z</time>
      </trkpt>
      <trkpt lat="44.31983470916748" lon="11.404259204864502">
        <ele>231</ele>
        <time>2004-02-08T10:29:28Z</time>
      </trkpt>
      <trkpt lat="44.320027828216553" lon="11.404752731323242">
        <ele>230</ele>
        <time>2004-02-08T10:29:34Z</time>
      </trkpt>
      <trkpt lat="44.320242404937744" lon="11.405031681060791">
        <ele>228</ele>
        <time>2004-02-08T10:29:38Z</time>
      </trkpt>
      <trkpt lat="44.320628559216857" lon="11.405417919158936">
        <ele>227</ele>
        <time>2004-02-08T10:29:44Z</time>
      </trkpt>
      <trkpt lat="44.320757389068604" lon="11.40554666519165">
        <ele>227</ele>
        <time>2004-02-08T10:29:46Z</time>
      </trkpt>
      <trkpt lat="44.321036338806152" lon="11.405696868896484">
        <ele>226</ele>
        <time>2004-02-08T10:29:50Z</time>
      </trkpt>
      <trkpt lat="44.321250915527344" lon="11.405739784240723">
        <ele>224</ele>
        <time>2004-02-08T10:29:55Z</time>
      </trkpt>
      <trkpt lat="44.321765899658203" lon="11.405696868896484">
        <ele>223</ele>
        <time>2004-02-08T10:30:00Z</time>
      </trkpt>
      <trkpt lat="44.322152137756348" lon="11.40556812286377">
        <ele>221</ele>
        <time>2004-02-08T10:30:05Z</time>
      </trkpt>
      <trkpt lat="44.322323799133301" lon="11.40550366602838">
        <ele>220</ele>
        <time>2004-02-08T10:30:07Z</time>
      </trkpt>
      <trkpt lat="44.322988986968994" lon="11.405375003814697">
        <ele>218</ele>
        <time>2004-02-08T10:30:15Z</time>
      </trkpt>
      <trkpt lat="44.323160564526916" lon="11.40531063079834">
        <ele>218</ele>
        <time>2004-02-08T10:30:17Z</time>
      </trkpt>
      <trkpt lat="44.323289394378662" lon="11.405224800109863">
        <ele>217</ele>
        <time>2004-02-08T10:30:19Z</time>
      </trkpt>
      <trkpt lat="44.323697090148926" lon="11.404860019683838">
        <ele>217</ele>
        <time>2004-02-08T10:30:26Z</time>
      </trkpt>
      <trkpt lat="44.32358980178833" lon="11.404688358306885">
        <ele>218</ele>
        <time>2004-02-08T10:30:32Z</time>
      </trkpt>
      <trkpt lat="44.323267936706543" lon="11.40406608581543">
        <ele>215</ele>
        <time>2004-02-08T10:30:50Z</time>
      </trkpt>
    </trkseg>
  </trk>

  <trk>
    <name>Track 002</name>
    <trkseg>
      <trkpt lat="44.29492243565619" lon="11.396877765655518">
        <ele>255</ele>
        <time>1989-12-31T00:00:00Z</time>
      </trkpt>
      <trkpt lat="44.295051097869873" lon="11.39681339263916">
        <ele>255</ele>
        <time>2004-02-08T10:21:32Z</time>
      </trkpt>
      <trkpt lat="44.29532996378839" lon="11.39681339263916">
        <ele>256</ele>
        <time>2004-02-08T10:21:21Z</time>
      </trkpt>
      <trkpt lat="44.295780658721924" lon="11.396663188934326">
        <ele>255</ele>
        <time>2004-02-08T10:21:02Z</time>
      </trkpt>
      <trkpt lat="44.296317100524902" lon="11.396341323852539">
        <ele>253</ele>
        <time>2004-02-08T10:20:43Z</time>
      </trkpt>
      <trkpt lat="44.296875" lon="11.395955085754395">
        <ele>252</ele>
        <time>2004-02-08T10:20:24Z</time>
      </trkpt>
      <trkpt lat="44.297583103179932" lon="11.395418560132384">
        <ele>251</ele>
        <time>2004-02-08T10:20:04Z</time>
      </trkpt>
      <trkpt lat="44.298141002655029" lon="11.394753539934754">
        <ele>250</ele>
        <time>2004-02-08T10:19:48Z</time>
      </trkpt>
      <trkpt lat="44.298205375671387" lon="11.394624710083008">
        <ele>251</ele>
        <time>2004-02-08T10:19:44Z</time>
      </trkpt>
      <trkpt lat="44.298527240753174" lon="11.394174098968506">
        <ele>249</ele>
        <time>2004-02-08T10:19:32Z</time>
      </trkpt>
      <trkpt lat="44.298977935686707" lon="11.393465995788574">
        <ele>249</ele>
        <time>2004-02-08T10:19:17Z</time>
      </trkpt>
      <trkpt lat="44.299149513244629" lon="11.393186962231994">
        <ele>250</ele>
        <time>2004-02-08T10:19:12Z</time>
      </trkpt>
      <trkpt lat="44.299170970916748" lon="11.39303675852716">
        <ele>250</ele>
        <time>2004-02-08T10:19:10Z</time>
      </trkpt>
      <trkpt lat="44.299192428588867" lon="11.392843723297119">
        <ele>249</ele>
        <time>2004-02-08T10:19:07Z</time>
      </trkpt>
      <trkpt lat="44.299256801605225" lon="11.392264366149902">
        <ele>250</ele>
        <time>2004-02-08T10:18:55Z</time>
      </trkpt>
      <trkpt lat="44.299235260114074" lon="11.392242908477783">
        <ele>250</ele>
        <time>2004-02-08T10:18:50Z</time>
      </trkpt>
      <trkpt lat="44.299085140228271" lon="11.391642093658447">
        <ele>251</ele>
        <time>2004-02-08T10:18:32Z</time>
      </trkpt>
      <trkpt lat="44.299192428588867" lon="11.391406059265137">
        <ele>252</ele>
        <time>2004-02-08T10:16:21Z</time>
      </trkpt>
      <trkpt lat="44.299192428588867" lon="11.391212940216064">
        <ele>253</ele>
        <time>2004-02-08T10:16:03Z</time>
      </trkpt>
      <trkpt lat="44.299106597900391" lon="11.391127109527588">
        <ele>252</ele>
        <time>2004-02-08T10:15:12Z</time>
      </trkpt>
      <trkpt lat="44.299042224884033" lon="11.391127109527588">
        <ele>252</ele>
        <time>2004-02-08T10:14:43Z</time>
      </trkpt>
      <trkpt lat="44.298999309539795" lon="11.390933990478516">
        <ele>252</ele>
        <time>2004-02-08T10:14:27Z</time>
      </trkpt>
      <trkpt lat="44.298956394195557" lon="11.390826785936952">
        <ele>252</ele>
        <time>1989-12-31T00:00:00Z</time>
      </trkpt>
    </trkseg>
  </trk>

</gpx>
